HOURLY OBS INDEX

009

Lower West, Southwest & South Coast

ALBANY AIRPORT

Site: 009999
Alt: 68.4m
10km NW of ALBANY


  Time     Wind        Temp  DP   Baro     Rain since   Rain past  Vis(m), Cloud(base in m), Weather
  local        km/h                         9am  last   hr   10m    
Tue 18:00    W 11/ 13  14.1----  1022.6    0.0   0.0   0.0   0.0   10000|BR1170 BR1410 
Tue 18:30  WNW 11/ 13  14.2----  1023.1    0.0   0.0   0.0   0.0   10000|OC1170 
Tue 19:00   NW 11/ 17  14.3----  1023.5    0.0   0.0   0.0   0.0   10000|SC 840 SC 990 OC1230 
Tue 19:30   NW 13/ 17  13.9----  1023.6    0.0   0.0   0.0   0.0   10000|BR1230 
Tue 20:00   NW 13/ 15  13.3----  1023.7    0.0   0.0   0.0   0.0   10000|BR1260 
Tue 20:30   NW 11/ 13  13.0----  1023.8    0.0   0.0   0.0   0.0   10000|SC 810 BR 990 BR1140 
Tue 21:00   NW 13/ 15  12.0----  1024.0    0.0   0.0   0.0   0.0   10000|SC1080 
Tue 21:30  WNW 11/ 15  11.8----  1024.0    0.0   0.0   0.0   0.0   10000 
Tue 22:00  WNW 11/ 11  11.5----  1024.1    0.0   0.0   0.0   0.0   10000 
Tue 22:30   NW 15/ 19  11.7----  1024.1    0.0   0.0   0.0   0.0   10000 
Tue 23:00  WNW 13/ 15  11.7----  1024.3    0.0   0.0   0.0   0.0   10000|SC1260 
Tue 23:00  WNW 13/ 15  11.7----  1024.3    0.0   0.0  ----   0.0   10000|SC1260 
Tue 23:10  WNW 17/ 22  12.3----  1024.5    0.0   0.0   0.0   0.0    6000|SC 870 BR1200 

BADGINGARRA AG STATION

Site: 009GBA
Alt: 284 m
56km NW of MOORA


  Time     Wind        Temp  DP   Baro     Rain since   Rain past  Vis(m), Cloud(base in m), Weather
  local        km/h                         9am  last   hr   10m    
Tue 18:00  WSW  4/  7  12.9 10.8  ------    2.4   0.0   0.0   0.0   ----- 
Tue 18:30    S  2/  4  11.7 10.1  ------    2.4   0.0   0.0   0.0   ----- 
Tue 18:30    S  2/  4  11.7 10.1  ------    2.4   0.0  ----   0.0   ----- 
Tue 19:00    C  0/  4  10.4  9.1  ------    2.4   0.0   0.0   0.0   ----- 
Tue 19:00    C  0/  4  10.4  9.1  ------    2.4   0.0  ----   0.0   ----- 
Tue 19:30  SSW  2/  4  10.0  9.0  ------    2.4   0.0   0.0   0.0   ----- 
Tue 19:30  SSW  2/  4  10.0  9.0  ------    2.4   0.0  ----   0.0   ----- 
Tue 20:00  SSE  2/  4  10.1  9.2  ------    2.4   0.0   0.0   0.0   ----- 
Tue 20:00  SSE  2/  4  10.1  9.2  ------    2.4   0.0  ----   0.0   ----- 
Tue 20:30  ENE  2/  6  10.2  9.5  ------    2.4   0.0   0.0   0.0   ----- 
Tue 21:00   NE  2/  4  10.3  9.7  ------    2.4   0.0   0.0   0.0   ----- 
Tue 21:00   NE  2/  4  10.3  9.7  ------    2.4   0.0  ----   0.0   ----- 
Tue 21:30    S  2/  4   8.3  7.7  ------    2.4   0.0   0.0   0.0   ----- 
Tue 22:00  SSE  2/  2   8.8  8.3  ------    2.4   0.0   0.0   0.0   ----- 
Tue 22:00  SSE  2/  2   8.8  8.3  ------    2.4   0.0  ----   0.0   ----- 
Tue 22:30    C  0/  2  10.0  9.6  ------    2.4   0.0   0.0   0.0   ----- 
Tue 23:00    C  0/  2   9.8  9.4  ------    2.4   0.0   0.0   0.0   ----- 
Tue 23:00    C  0/  2   9.8  9.4  ------    2.4   0.0  ----   0.0   ----- 

BADGINGARRA RESEARCH STN

Site: 009037
Alt: 275.0m
55km NW of MOORA


  Time     Wind        Temp  DP   Baro     Rain since   Rain past  Vis(m), Cloud(base in m), Weather
  local        km/h                         9am  last   hr   10m    
Tue 18:00  WSW  9/ 11  12.6 10.3  ------    2.2   0.0   0.0   0.0   ----- 
Tue 18:30  SSW  6/  7  11.7 10.1  ------    2.2   0.0   0.0   0.0   ----- 
Tue 19:00  SSW  7/  9  10.4  9.0  ------    2.2   0.0   0.0   0.0   ----- 
Tue 19:30  SSW  7/  7  10.2  9.1  ------    2.2   0.0   0.0   0.0   ----- 
Tue 20:00    S  4/  6  10.2  9.1  ------    2.2   0.0   0.0   0.0   ----- 
Tue 20:30    C  0/  0   9.9  9.0  ------    2.2   0.0   0.0   0.0   ----- 
Tue 21:00  NNE  6/  6  10.1  9.3  ------    2.2   0.0   0.0   0.0   ----- 
Tue 21:30    C  0/  0   8.1  7.2  ------    2.2   0.0   0.0   0.0   ----- 
Tue 22:00    C  0/  0   8.4  7.6  ------    2.2   0.0   0.0   0.0   ----- 
Tue 22:30    C  0/  0   9.9  9.3  ------    2.2   0.0   0.0   0.0   ----- 
Tue 23:00    C  0/  0   9.3  8.5  ------    2.2   0.0   0.0   0.0   ----- 
Tue 23:00    C  0/  0   9.3  8.5  ------    2.2   0.0  ----   0.0   ----- 

BICKLEY

Site: 009240
Alt: 384.0m
27km ESE of PERTH CBD


  Time     Wind        Temp  DP   Baro     Rain since   Rain past  Vis(m), Cloud(base in m), Weather
  local        km/h                         9am  last   hr   10m    
Tue 18:00  WNW 11/ 15  12.2 10.8  ------    2.2   0.0   0.2   0.0   ----- 
Tue 18:30  WNW 13/ 22  12.1 11.0  ------    2.4   0.2   0.2   0.0   ----- 
Tue 19:00  WNW 11/ 17  11.9 10.8  ------    2.4   0.0   0.2   0.0   ----- 
Tue 19:30    W 13/ 22  12.1 11.2  ------    2.4   0.0   0.0   0.0   ----- 
Tue 20:00  WNW  9/ 13  12.1 11.2  ------    2.6   0.2   0.2   0.0   ----- 
Tue 20:30    W 11/ 15  12.3 11.5  ------    2.6   0.0   0.2   0.0   ----- 
Tue 21:00  WNW  9/ 13  12.2 11.6  ------    2.6   0.0   0.0   0.0   ----- 
Tue 21:30  WNW  9/ 15  12.3 11.7  ------    2.8   0.2   0.2   0.2   ----- 
Tue 22:00  WNW  9/ 13  12.3 11.8  ------    3.8   1.0   1.2   0.4   ----- 
Tue 22:30  NNW  9/ 13  12.3 12.0  ------    3.8   0.0   1.0   0.0   ----- 
Tue 23:00   NW 11/ 17  12.3 12.0  ------    4.0   0.2   0.2   0.2   ----- 
Tue 23:00   NW 11/ 17  12.3 12.0  ------    4.0   0.0  ----   0.2   ----- 

BREMER BAY AG STATION

Site: 009UPW
Alt: 100m
41km ENE of ESPERANCE


  Time     Wind        Temp  DP   Baro     Rain since   Rain past  Vis(m), Cloud(base in m), Weather
  local        km/h                         9am  last   hr   10m    
Tue 18:00    N  6/  9  11.5  7.4  ------    0.0   0.0   0.0   0.0   ----- 
Tue 18:30    N  6/  9  10.4  7.2  ------    0.0   0.0   0.0   0.0   ----- 
Tue 19:00    N  7/  9  10.4  7.2  ------    0.0   0.0   0.0   0.0   ----- 
Tue 19:30    N  6/ 11  10.5  6.9  ------    0.0   0.0   0.0   0.0   ----- 
Tue 19:30    N  6/ 11  10.5  6.9  ------    0.0   0.0  ----   0.0   ----- 
Tue 20:00    N  6/  9   9.2  6.5  ------    0.0   0.0   0.0   0.0   ----- 
Tue 20:30   NW  7/ 11   9.4  6.7  ------    0.0   0.0   0.0   0.0   ----- 
Tue 21:00  NNW  7/ 11   9.2  6.5  ------    0.0   0.0   0.0   0.0   ----- 
Tue 21:30   NW 11/ 17  10.5  7.7  ------    0.0   0.0   0.0   0.0   ----- 
Tue 22:00   NW 15/ 20  11.5  8.2  ------    0.0   0.0   0.0   0.0   ----- 
Tue 22:30   NW  9/ 15  11.5  8.5  ------    0.0   0.0   0.0   0.0   ----- 
Tue 23:00   NW 11/ 17  11.5  8.5  ------    0.0   0.0   0.0   0.0   ----- 

BRIDGETOWN

Site: 009617
Alt: 178.7m
33km N of MANJIMUP


  Time     Wind        Temp  DP   Baro     Rain since   Rain past  Vis(m), Cloud(base in m), Weather
  local        km/h                         9am  last   hr   10m    
Tue 18:00   NW  2/  6  13.5 13.0  1024.2    2.8   0.4   0.4   0.2   ----- 
Tue 18:30    C  0/  6  13.5 13.0  1024.5    3.4   0.6   1.0   0.2   ----- 
Tue 19:00    C  0/  0  13.0 12.5  1024.8    3.4   0.0   0.6   0.0   ----- 
Tue 19:30    C  0/  0  12.9 12.4  1025.0    3.4   0.0   0.0   0.0   ----- 
Tue 20:00    C  0/  0  12.9 12.6  1025.1    3.6   0.2   0.2   0.0   ----- 
Tue 20:30    C  0/  0  13.0 12.7  1025.2    3.6   0.0   0.2   0.0   ----- 
Tue 21:00    C  0/  0  12.4 12.1  1025.3    3.6   0.0   0.0   0.0   ----- 
Tue 21:30    C  0/  0  12.5 12.2  1025.3    3.6   0.0   0.0   0.0   ----- 
Tue 22:00    C  0/  0  12.5 12.3  1025.4    3.6   0.0   0.0   0.0   ----- 
Tue 22:30    N  2/  4  12.6 12.4  1025.6    3.6   0.0   0.0   0.0   ----- 
Tue 23:00    C  0/  0  12.6 12.4  1025.6    3.6   0.0   0.0   0.0   ----- 
Tue 23:00    C  0/  0  12.6 12.4  1025.6    3.6   0.0  ----   0.0   ----- 

BUNBURY

Site: 009965
Alt: 5.2m
2km S of BUNBURY


  Time     Wind        Temp  DP   Baro     Rain since   Rain past  Vis(m), Cloud(base in m), Weather
  local        km/h                         9am  last   hr   10m    
Tue 18:00    W  7/ 11  15.8 13.6  1024.6    5.4   0.0   0.0   0.0   ----- 
Tue 18:30    W  6/  7  15.6 13.6  1025.0    5.4   0.0   0.0   0.0   ----- 
Tue 19:00   SW  6/ 13  15.4 13.2  1025.3    5.4   0.0   0.0   0.0   ----- 
Tue 19:30   SW  6/  7  14.9 12.8  1025.5    5.4   0.0   0.0   0.0   ----- 
Tue 20:00  SSW  2/  4  13.9 11.9  1025.6    5.4   0.0   0.0   0.0   ----- 
Tue 20:30    C  0/  0  13.1 11.5  1025.8    5.4   0.0   0.0   0.0   ----- 
Tue 21:00    C  0/  0  12.2 10.8  1025.9    5.4   0.0   0.0   0.0   ----- 
Tue 21:30    C  0/  0  11.1  9.7  1025.9    5.4   0.0   0.0   0.0   ----- 
Tue 22:00    C  0/  0  10.4  9.2  1025.9    5.4   0.0   0.0   0.0   ----- 
Tue 22:30    C  0/  0  10.5  9.3  1026.1    5.4   0.0   0.0   0.0   ----- 
Tue 23:00    C  0/  0   9.7  8.6  1026.2    5.4   0.0   0.0   0.0   ----- 
Tue 23:00    C  0/  0   9.7  8.6  1026.2    5.4   0.0  ----   0.0   ----- 

BUSSELTON AERO

Site: 009603
Alt: 16.3m
5km ESE of BUSSELTON


  Time     Wind        Temp  DP   Baro     Rain since   Rain past  Vis(m), Cloud(base in m), Weather
  local        km/h                         9am  last   hr   10m    
Tue 18:00   SW  7/  9  14.3 13.2  1024.3    2.8   0.0   0.0   0.0   ----- 
Tue 18:30  WSW  6/  7  14.0 13.7  1024.7    2.8   0.0   0.0   0.0   ----- 
Tue 19:00   SW  6/  7  13.7 13.5  1024.9    2.8   0.0   0.0   0.0   ----- 
Tue 19:30    C  0/  0  13.1 12.9  1025.1    2.8   0.0   0.0   0.0   ----- 
Tue 20:00    C  0/  0  12.9 12.7  1025.3    2.8   0.0   0.0   0.0   ----- 
Tue 20:30    C  0/  0  11.7 11.5  1025.4    2.8   0.0   0.0   0.0   ----- 
Tue 21:00    C  0/  0  11.1 10.9  1025.5    2.8   0.0   0.0   0.0   ----- 
Tue 21:30    C  0/  0  10.9 10.7  1025.6    2.8   0.0   0.0   0.0   ----- 
Tue 22:00  SSE  2/  9  10.8 10.8  1025.7    2.8   0.0   0.0   0.0   ----- 
Tue 22:30    C  0/  0  11.0 11.0  1025.8    2.8   0.0   0.0   0.0   ----- 
Tue 23:00    S  4/  7  10.7 10.7  1025.9    2.8   0.0   0.0   0.0   ----- 
Tue 23:00    S  4/  7  10.7 10.7  1025.9    2.8   0.0  ----   0.0   ----- 

BUSSELTON JETTY

Site: 009937
Alt: 3.0m
4km NNW of BUSSELTON


  Time     Wind        Temp  DP   Baro     Rain since   Rain past  Vis(m), Cloud(base in m), Weather
  local        km/h                         9am  last   hr   10m    
Tue 18:00  WSW 17/ 19 --------  ------   ----  ----  ----  ----   ----- 
Tue 18:30   SW 13/ 15 --------  ------   ----  ----  ----  ----   ----- 
Tue 19:00    W 11/ 13 --------  ------   ----  ----  ----  ----   ----- 
Tue 19:30  WSW  9/ 11 --------  ------   ----  ----  ----  ----   ----- 
Tue 20:00  WSW  9/ 11 --------  ------   ----  ----  ----  ----   ----- 
Tue 20:30   SW  7/  7 --------  ------   ----  ----  ----  ----   ----- 
Tue 21:00   SW  9/  9 --------  ------   ----  ----  ----  ----   ----- 
Tue 21:30    S  7/  7 --------  ------   ----  ----  ----  ----   ----- 
Tue 22:00  SSW  6/  7 --------  ------   ----  ----  ----  ----   ----- 
Tue 22:30    S  6/  7 --------  ------   ----  ----  ----  ----   ----- 
Tue 23:00    S  7/  9 --------  ------   ----  ----  ----  ----   ----- 
Tue 23:00    S  7/  9 --------  ------   ----  ----  ----  ----   ----- 

CAPE LEEUWIN

Site: 009518
Alt: 13.0m
47km S of MARGARET RIVER


  Time     Wind        Temp  DP   Baro     Rain since   Rain past  Vis(m), Cloud(base in m), Weather
  local        km/h                         9am  last   hr   10m    
Tue 18:00    W 17/ 30  16.2 13.7  1023.8    3.4   0.0   0.0   0.0   ----- 
Tue 18:30   SW 19/ 24  16.1 13.0  1024.2    3.4   0.0   0.0   0.0   ----- 
Tue 18:56  WSW 28/ 46  15.7 14.3  1024.4    3.4   0.0  ----   0.0   ----- 
Tue 19:00  WSW 35/ 46  15.4 14.0  1024.5    3.4   0.0   0.0   0.0   ----- 
Tue 19:30   SW  9/ 13  14.8 13.2  1024.6    3.4   0.0   0.0   0.0   ----- 
Tue 20:00   SW 24/ 30  15.6 13.8  1024.8    3.6   0.2   0.2   0.0   ----- 
Tue 20:30   SW 26/ 32  15.7 13.7  1024.9    4.0   0.4   0.6   0.0   ----- 
Tue 21:00   SW 17/ 20  15.3 13.3  1025.0    4.0   0.0   0.4   0.0   ----- 
Tue 21:30   SW 22/ 28  16.1 12.6  1025.0    4.0   0.0   0.0   0.0   ----- 
Tue 22:00  WSW 24/ 32  16.2 12.4  1025.1    4.0   0.0   0.0   0.0   ----- 
Tue 22:30   SW 22/ 28  16.0 12.1  1025.2    4.0   0.0   0.0   0.0   ----- 
Tue 23:00  WSW 35/ 41  15.8 14.2  1025.4    4.0   0.0   0.0   0.0   ----- 
Tue 23:00  WSW 35/ 41  15.8 14.2  1025.4    4.0   0.0  ----   0.0   ----- 

CAPE NATURALISTE

Site: 009519
Alt: 109.0m
34km WNW of BUSSELTON


  Time     Wind        Temp  DP   Baro     Rain since   Rain past  Vis(m), Cloud(base in m), Weather
  local        km/h                         9am  last   hr   10m    
Tue 18:00   SW 22/ 32  15.1 12.4  1024.2    3.8   0.0   0.0   0.0   ----- 
Tue 18:30  SSW 15/ 22  14.9 12.6  1024.5    3.8   0.0   0.0   0.0   ----- 
Tue 19:00   SW 22/ 30  14.9 12.8  1024.7    4.0   0.2   0.2   0.0   ----- 
Tue 19:30  SSW 19/ 26  15.0 12.9  1024.9    4.0   0.0   0.2   0.0   ----- 
Tue 20:00  SSW 19/ 26  15.1 13.0  1025.0    4.0   0.0   0.0   0.0   ----- 
Tue 20:30  SSW 17/ 24  14.7 12.2  1025.2    4.0   0.0   0.0   0.0   ----- 
Tue 21:00  SSW 17/ 20  15.3 12.8  1025.3    4.0   0.0   0.0   0.0   ----- 
Tue 21:30  SSW 17/ 26  15.0 12.9  1025.4    4.0   0.0   0.0   0.0   ----- 
Tue 22:00  SSW 15/ 22  14.3 12.2  1025.5    4.0   0.0   0.0   0.0   ----- 
Tue 22:30  SSW 17/ 20  14.5 12.4  1025.5    4.0   0.0   0.0   0.0   ----- 
Tue 23:00  SSW 20/ 26  14.6 12.6  1025.7    4.4   0.4   0.4   0.0   ----- 
Tue 23:00  SSW 20/ 26  14.6 12.6  1025.7    4.4   0.0  ----   0.0   ----- 

COLLIE EAST

Site: 009994
Alt: 200.0m
2km ESE of COLLIE


  Time     Wind        Temp  DP   Baro     Rain since   Rain past  Vis(m), Cloud(base in m), Weather
  local        km/h                         9am  last   hr   10m    
Tue 18:00    N  6/  6  12.9 11.5  ------    3.6   0.0   0.0   0.0   ----- 
Tue 18:30  NNW  2/  6  11.8 10.4  ------    3.6   0.0   0.0   0.0   ----- 
Tue 19:00    C  0/  0  11.7 10.4  ------    3.6   0.0   0.0   0.0   ----- 
Tue 19:30    C  0/  0  11.4 10.3  ------    3.6   0.0   0.0   0.0   ----- 
Tue 20:00    C  0/  0  10.4  9.3  ------    3.6   0.0   0.0   0.0   ----- 
Tue 20:30    C  0/  0  10.5  9.4  ------    3.6   0.0   0.0   0.0   ----- 
Tue 21:00    C  0/  0  10.9 10.0  ------    3.6   0.0   0.0   0.0   ----- 
Tue 21:30    C  0/  0  10.3  9.2  ------    3.8   0.2   0.2   0.0   ----- 
Tue 22:00    C  0/  0   9.9  8.8  ------    3.8   0.0   0.2   0.0   ----- 
Tue 22:30    C  0/  0  10.1  9.2  ------    3.8   0.0   0.0   0.0   ----- 
Tue 23:00    C  0/  0  10.1  9.2  ------    3.8   0.0   0.0   0.0   ----- 
Tue 23:00    C  0/  0  10.1  9.2  ------    3.8   0.0  ----   0.0   ----- 

COOMALBIDGUP AG STATION

Site: 009MLP
Alt: 90m
57km WNW of ESPERANCE


  Time     Wind        Temp  DP   Baro     Rain since   Rain past  Vis(m), Cloud(base in m), Weather
  local        km/h                         9am  last   hr   10m    
Tue 18:00   NW 13/ 19  14.3  8.7  ------    0.0   0.0   0.0   0.0   ----- 
Tue 18:30  NNW 11/ 17  13.4  8.6  ------    0.0   0.0   0.0   0.0   ----- 
Tue 19:00   NW  9/ 15  12.6  8.6  ------    0.0   0.0   0.0   0.0   ----- 
Tue 19:30  NNW 11/ 17  12.9  8.9  ------    0.0   0.0   0.0   0.0   ----- 
Tue 19:30  NNW 11/ 17  12.9  8.9  ------    0.0   0.0  ----   0.0   ----- 
Tue 20:00   NW 13/ 20  13.5  9.4  ------    0.0   0.0   0.0   0.0   ----- 
Tue 20:30   NW 19/ 26  14.0  9.6  ------    0.0   0.0   0.0   0.0   ----- 
Tue 21:00  WNW 19/ 26  14.1  9.7  ------    0.0   0.0   0.0   0.0   ----- 
Tue 21:30   NW 20/ 32  13.7  9.5  ------    0.0   0.0   0.0   0.0   ----- 
Tue 22:00   NW 19/ 28  13.2  9.4  ------    0.0   0.0   0.0   0.0   ----- 
Tue 22:30   NW 17/ 28  12.8  9.3  ------    0.0   0.0   0.0   0.0   ----- 
Tue 23:00   NW 15/ 22  12.5  9.5  ------    0.0   0.0   0.0   0.0   ----- 

DARDANUP

Site: 009GDA
Alt: 24 m
13km E of BUNBURY


  Time     Wind        Temp  DP   Baro     Rain since   Rain past  Vis(m), Cloud(base in m), Weather
  local        km/h                         9am  last   hr   10m    
Tue 18:00   NE  4/---  14.1 13.6  ------    4.4   0.0   0.0   0.0   ----- 
Tue 18:30  NNE  4/---  14.2 14.0  ------    4.4   0.0   0.0   0.0   ----- 
Tue 19:00  NNE  6/---  13.5 13.4  ------    4.4   0.0   0.0   0.0   ----- 
Tue 19:30  NNE  4/---  13.2 13.2  ------    4.4   0.0   0.0   0.0   ----- 
Tue 20:00  ESE  2/---  12.7 12.7  ------    4.4   0.0   0.0   0.0   ----- 
Tue 20:30    E  2/---  11.4 11.4  ------    4.4   0.0   0.0   0.0   ----- 
Tue 21:00    E  2/---  11.7 11.7  ------    4.4   0.0   0.0   0.0   ----- 
Tue 21:30   NE  4/---  10.8 10.8  ------    4.4   0.0   0.0   0.0   ----- 
Tue 22:00  ENE  2/---  10.6 10.6  ------    4.4   0.0   0.0   0.0   ----- 
Tue 22:30  ENE  2/---  10.1 10.1  ------    4.4   0.0   0.0   0.0   ----- 
Tue 23:00    E  2/---  10.5 10.5  ------    4.4   0.0   0.0   0.0   ----- 
Tue 23:00    E  2/---  10.5 10.5  ------    4.4   0.0  ----   0.0   ----- 

DONNYBROOK AG STATION

Site: 009GDB
Alt: 71 m
33km SE of BUNBURY


  Time     Wind        Temp  DP   Baro     Rain since   Rain past  Vis(m), Cloud(base in m), Weather
  local        km/h                         9am  last   hr   10m    
Tue 18:00    C  0/  2  12.9 12.7  ------    2.0   0.0   0.0   0.0   ----- 
Tue 18:30    C  0/  0  11.9 11.9  ------    2.0   0.0   0.0   0.0   ----- 
Tue 19:00    C  0/  0  12.2 12.2  ------    2.0   0.0   0.0   0.0   ----- 
Tue 19:30    C  0/  6  11.0 10.9  ------    2.0   0.0   0.0   0.0   ----- 
Tue 19:30    C  0/  6  11.0 10.9  ------    2.0   0.0  ----   0.0   ----- 
Tue 20:00    C  0/  2  11.6 11.6  ------    2.0   0.0   0.0   0.0   ----- 
Tue 20:30    C  0/  2  11.2 11.2  ------    2.0   0.0   0.0   0.0   ----- 
Tue 21:00    C  0/  0  10.4 10.4  ------    2.0   0.0   0.0   0.0   ----- 
Tue 21:30    C  0/  0  10.2 10.2  ------    2.0   0.0   0.0   0.0   ----- 
Tue 22:00    C  0/  2   9.7  9.7  ------    2.0   0.0   0.0   0.0   ----- 
Tue 22:30    C  0/  0   9.8  9.8  ------    2.0   0.0   0.0   0.0   ----- 
Tue 23:00    C  0/  2   9.9  9.9  ------    2.0   0.0   0.0   0.0   ----- 

DWELLINGUP

Site: 009538
Alt: 267.0m
37km ESE of MANDURAH


  Time     Wind        Temp  DP   Baro     Rain since   Rain past  Vis(m), Cloud(base in m), Weather
  local        km/h                         9am  last   hr   10m    
Tue 18:00  WNW 13/ 24  13.3 12.2  1025.3    4.2   0.2   0.2   0.2   ----- 
Tue 18:30  WNW  9/ 19  13.3 12.4  1025.7    4.2   0.0   0.2   0.0   ----- 
Tue 19:00  WNW  9/ 17  13.3 12.4  1025.9    4.6   0.4   0.4   0.4   ----- 
Tue 19:30  WSW  9/ 13  13.2 12.3  1026.1    4.8   0.2   0.6   0.2   ----- 
Tue 20:00  WSW  7/ 11  13.2 12.3  1026.2    6.6   1.8   2.0   0.8   ----- 
Tue 20:30  WSW  2/  9  13.2 12.3  1026.3    7.0   0.4   2.2   0.0   ----- 
Tue 21:00    W  2/  9  13.3 12.4  1026.4    7.0   0.0   0.4   0.0   ----- 
Tue 21:30   NW  6/  7  13.1 12.2  1026.3    7.0   0.0   0.0   0.0   ----- 
Tue 22:00    N  7/  9  12.8 11.9  1026.3    7.0   0.0   0.0   0.0   ----- 
Tue 22:30    N  9/ 11  12.7 11.9  1026.4    7.0   0.0   0.0   0.0   ----- 
Tue 23:00    N  9/ 11  12.5 11.7  1026.5    7.0   0.0   0.0   0.0   ----- 
Tue 23:00    N  9/ 11  12.5 11.7  1026.5    7.0   0.0  ----   0.0   ----- 

ESPERANCE

Site: 009789
Alt: 25.0m
3km N of ESPERANCE


  Time     Wind        Temp  DP   Baro     Rain since   Rain past  Vis(m), Cloud(base in m), Weather
  local        km/h                         9am  last   hr   10m    
Tue 18:00    N 11/ 13  13.1  7.5  1023.3   ----  ----  ----  ----   10000|SC1680 
Tue 18:30  NNW  9/ 13  13.0  7.7  1023.6   ----  ----  ----  ----   10000|SC1620 SC2370 
Tue 19:00   NW 15/ 20  13.2  7.4  1023.9   ----  ----  ----  ----   10000|SC2700 
Tue 19:30   NW 19/ 24  13.2  7.6  1023.8   ----  ----  ----  ----   10000|SC2250 
Tue 20:00   NW 20/ 26  12.9  7.8  1024.1   ----  ----  ----  ----   10000 
Tue 20:30   NW 20/ 26  13.0  7.9  1024.2   ----  ----  ----  ----   10000|BR2280 OC2610 
Tue 21:00   NW 19/ 24  13.4  8.3  1024.2   ----  ----  ----  ----   10000|BR2160 BR2430 OC2910 
Tue 21:30   NW 20/ 28  13.4  8.5  1024.2   ----  ----  ----  ----   10000|BR1830 OC2250 
Tue 22:00   NW 20/ 30  13.2  8.5  1024.3   ----  ----  ----  ----   10000|SC1590 BR2250 OC2610 
Tue 22:30   NW 20/ 28  13.1  8.6  1024.4   ----  ----  ----  ----   10000|BR2190 OC2520 
Tue 23:00   NW 20/ 28  13.2  8.7  1024.6   ----  ----  ----  ----   10000|OC2430 
Tue 23:00   NW 20/ 28  13.2  8.7  1024.6   ----  ----  ----  ----   10000|OC2430 

ESPERANCE AERO

Site: 009542
Alt: 142.0m
21km NNW of ESPERANCE


  Time     Wind        Temp  DP   Baro     Rain since   Rain past  Vis(m), Cloud(base in m), Weather
  local        km/h                         9am  last   hr   10m    
Tue 18:00   NW 15/ 19  12.4  7.3  1023.7    0.0   0.0   0.0   0.0   10000|SC1650 
Tue 18:30   NW 17/ 22  12.6  7.5  1024.0    0.0   0.0   0.0   0.0   10000 
Tue 19:00   NW 19/ 26  12.6  7.5  1024.2    0.0   0.0   0.0   0.0   10000|SC2850 
Tue 19:30   NW 20/ 26  12.6  7.5  1024.3    0.0   0.0   0.0   0.0   10000 
Tue 20:00   NW 22/ 30  12.6  7.5  1024.5    0.0   0.0   0.0   0.0   10000 
Tue 20:30   NW 17/ 20  12.0  7.5  1024.6    0.0   0.0   0.0   0.0   10000|SC2220 
Tue 21:00   NW 20/ 26  11.9  7.6  1024.6    0.0   0.0   0.0   0.0   10000|BR1980 OC2430 
Tue 21:30   NW 19/ 26  12.5  8.2  1024.7    0.0   0.0   0.0   0.0   10000|BR1800 OC2070 
Tue 22:00   NW 20/ 28  12.3  8.0  1024.7    0.0   0.0   0.0   0.0   10000|BR1830 OC2430 
Tue 22:30   NW 20/ 26  12.3  8.2  1024.8    0.0   0.0   0.0   0.0   10000|SC1530 BR2430 
Tue 23:00   NW 20/ 28  11.9  8.0  1024.9    0.0   0.0   0.0   0.0   10000|BR2460 
Tue 23:00   NW 20/ 28  11.9  8.0  1024.9    0.0   0.0  ----   0.0   10000|BR2460 

ESPERANCE AG STATION

Site: 009GES
Alt: 158 m
158km NNW of ESPERANCE


  Time     Wind        Temp  DP   Baro     Rain since   Rain past  Vis(m), Cloud(base in m), Weather
  local        km/h                         9am  last   hr   10m    
Tue 18:00  WNW  6/ 13  12.9  7.8  ------    0.0   0.0   0.0   0.0   ----- 
Tue 18:30   NW  7/ 15  12.6  7.8  ------    0.0   0.0   0.0   0.0   ----- 
Tue 19:00   NW  7/ 17  12.6  7.8  ------    0.0   0.0   0.0   0.0   ----- 
Tue 19:30   NW  6/ 13  12.1  7.5  ------    0.0   0.0   0.0   0.0   ----- 
Tue 19:30   NW  6/ 13  12.1  7.5  ------    0.0   0.0  ----   0.0   ----- 
Tue 20:00   NW  6/ 13  11.5  7.8  ------    0.0   0.0   0.0   0.0   ----- 
Tue 20:30   NW  7/ 15  11.9  7.9  ------    0.0   0.0   0.0   0.0   ----- 
Tue 21:00   NW  9/ 19  12.4  8.3  ------    0.0   0.0   0.0   0.0   ----- 
Tue 21:30   NW  9/ 19  12.8  8.3  ------    0.0   0.0   0.0   0.0   ----- 
Tue 22:00   NW  7/ 17  12.2  8.3  ------    0.0   0.0   0.0   0.0   ----- 
Tue 22:30   NW  7/ 17  12.0  8.5  ------    0.0   0.0   0.0   0.0   ----- 
Tue 23:00   NW  7/ 15  11.4  8.4  ------    0.0   0.0   0.0   0.0   ----- 

FLOREAT PARK AG STATION

Site: 009GFL
Alt: 158 m
7km W of PERTH CBD


  Time     Wind        Temp  DP   Baro     Rain since   Rain past  Vis(m), Cloud(base in m), Weather
  local        km/h                         9am  last   hr   10m    
Tue 18:00    C  0/  6  16.0 12.9  ------    0.4   0.0   0.0   0.0   ----- 
Tue 18:30    C  0/  4  15.1 13.1  ------    0.6   0.2   0.2   0.0   ----- 
Tue 19:00    C  0/  2  15.2 13.4  ------    0.6   0.0   0.2   0.0   ----- 
Tue 19:30    S  4/ 15  15.5 14.5  ------    0.6   0.0   0.0   0.0   ----- 
Tue 19:30    S  4/ 15  15.5 14.5  ------    0.6   0.0  ----   0.0   ----- 
Tue 20:00    C  0/  2  15.5 14.0  ------    0.6   0.0   0.0   0.0   ----- 
Tue 20:30  WNW  2/ 11  15.2 13.5  ------    0.6   0.0   0.0   0.0   ----- 
Tue 21:00    C  0/  2  14.9 13.9  ------    0.8   0.2   0.2   0.2   ----- 
Tue 21:30    C  0/  4  15.2 14.4  ------    1.0   0.2   0.4   0.0   ----- 
Tue 22:00   NW  2/  7  15.5 14.8  ------    1.2   0.2   0.4   0.0   ----- 
Tue 22:30  NNW  2/  6  15.5 15.0  ------    1.6   0.4   0.6   0.2   ----- 
Tue 23:00    N  2/  7  15.1 14.7  ------    1.6   0.0   0.0   0.0   ----- 

FRANKLAND

Site: 009GFR
Alt: 224 m
69km WNW of MOUNT BARKER


  Time     Wind        Temp  DP   Baro     Rain since   Rain past  Vis(m), Cloud(base in m), Weather
  local        km/h                         9am  last   hr   10m    
Tue 18:00    W  4/  7  13.1 12.5  ------    1.0   0.0   0.0   0.0   ----- 
Tue 18:30  NNW  2/  6  13.1 12.6  ------    1.0   0.0   0.0   0.0   ----- 
Tue 19:00  WNW  6/  9  13.1 12.7  ------    1.0   0.0   0.0   0.0   ----- 
Tue 19:30    C  0/  6  13.1 12.9  ------    1.0   0.0   0.0   0.0   ----- 
Tue 19:30    C  0/  6  13.1 12.9  ------    1.0   0.0  ----   0.0   ----- 
Tue 20:00  WNW  2/  4  12.7 12.5  ------    1.0   0.0   0.0   0.0   ----- 
Tue 20:30   NW  2/  2  11.8 11.7  ------    1.0   0.0   0.0   0.0   ----- 
Tue 21:00   NW  2/  4  11.8 11.8  ------    1.0   0.0   0.0   0.0   ----- 
Tue 21:30    W  4/  6  10.7 10.7  ------    1.0   0.0   0.0   0.0   ----- 
Tue 22:00    W  2/  4  10.4 10.4  ------    1.0   0.0   0.0   0.0   ----- 
Tue 22:30    W  4/  6  10.0 10.0  ------    1.2   0.2   0.2   0.0   ----- 
Tue 23:00    W  4/  6  10.6 10.6  ------    1.2   0.0   0.0   0.0   ----- 

GARDEN ISLAND HSF

Site: 009256
Alt: 6.0m
32km N of MANDURAH


  Time     Wind        Temp  DP   Baro     Rain since   Rain past  Vis(m), Cloud(base in m), Weather
  local        km/h                         9am  last   hr   10m    
Tue 18:00   NW 22/ 32  16.5 14.0  1025.8    3.6   0.4   0.4   0.4   ----- 
Tue 19:00    W 20/ 28  17.1 14.9  1026.2    6.0   2.4   2.4   0.0   ----- 
Tue 20:00  WSW 13/ 17  16.0 14.9  1026.3    8.8   2.8   2.8   0.0   ----- 
Tue 21:00    W 20/ 30  15.9 14.4  1026.5    9.6   0.8   0.8   0.4   ----- 
Tue 22:00  ESE 13/ 15  15.4 14.4  1026.6   11.4   1.8   1.8   0.0   ----- 
Tue 23:00   NE 11/ 13  15.3 14.7  1026.8   11.8   0.4   0.4   0.4   ----- 
Tue 23:00   NE 11/ 13  15.3 14.7  1026.8   11.8   0.0  ----   0.4   ----- 

GINGIN AERO

Site: 009178
Alt: 73.0m
54km N of PERTH CBD


  Time     Wind        Temp  DP   Baro     Rain since   Rain past  Vis(m), Cloud(base in m), Weather
  local        km/h                         9am  last   hr   10m    
Tue 18:00  NNW  7/ 11  14.4 11.4  1026.3    0.8   0.0   0.0   0.0   ----- 
Tue 18:30   NW  9/ 11  13.7 11.0  1026.6    0.8   0.0   0.0   0.0   ----- 
Tue 19:00  NNW  2/  7  13.4 11.1  1026.7    0.8   0.0   0.0   0.0   ----- 
Tue 19:30  NNW  7/ 11  12.0 10.1  1026.9    0.8   0.0   0.0   0.0   ----- 
Tue 20:00    N 13/ 13  12.3 10.9  1027.0    0.8   0.0   0.0   0.0   ----- 
Tue 20:30    N 13/ 13  12.1 10.5  1027.1    0.8   0.0   0.0   0.0   ----- 
Tue 21:00    N 11/ 13  11.9 10.3  1027.2    0.8   0.0   0.0   0.0   ----- 
Tue 21:30   NW  7/ 13  12.1 10.7  1027.2    0.8   0.0   0.0   0.0   ----- 
Tue 22:00   NW  9/ 13  12.6 11.0  1027.4    0.8   0.0   0.0   0.0   ----- 
Tue 22:30  NNW  9/ 13  12.5 10.9  1027.4    0.8   0.0   0.0   0.0   ----- 
Tue 23:00  NNW  9/ 13  12.4 10.8  1027.6    0.8   0.0   0.0   0.0   ----- 
Tue 23:00  NNW  9/ 13  12.4 10.8  1027.6    0.8   0.0  ----   0.0   ----- 

GINGIN WEST AG STATION

Site: 009GNW
Alt: m
km of


  Time     Wind        Temp  DP   Baro     Rain since   Rain past  Vis(m), Cloud(base in m), Weather
  local        km/h                         9am  last   hr   10m    
Tue 18:00    W  4/  6  14.8 11.3  ------    6.0   0.0   0.0   0.0   ----- 
Tue 18:30  WSW  2/  2  14.3 11.0  ------    6.0   0.0   0.0   0.0   ----- 
Tue 19:00    N  2/  4  14.4 10.9  ------    6.0   0.0   0.0   0.0   ----- 
Tue 19:30  NNW  2/  4  14.1 10.9  ------    6.0   0.0   0.0   0.0   ----- 
Tue 19:30  NNW  2/  4  14.1 10.9  ------    6.0   0.0  ----   0.0   ----- 
Tue 20:00   NW  4/  6  13.9 10.8  ------    6.0   0.0   0.0   0.0   ----- 
Tue 20:30  NNW  4/  6  13.6 10.7  ------    6.0   0.0   0.0   0.0   ----- 
Tue 21:00    N  2/  6  12.9 10.8  ------    6.0   0.0   0.0   0.0   ----- 
Tue 21:00    N  2/  6  12.9 10.8  ------    6.0   0.0  ----   0.0   ----- 
Tue 21:30    N  4/  4  12.7 10.9  ------    6.0   0.0   0.0   0.0   ----- 
Tue 22:00    N  6/  9  12.8 11.2  ------    6.0   0.0   0.0   0.0   ----- 
Tue 22:30  WNW  2/  6  13.2 11.5  ------    6.0   0.0   0.0   0.0   ----- 
Tue 23:00  NNW  4/  7  13.9 12.4  ------    6.0   0.0   0.0   0.0   ----- 

GOOSEBERRY HILL

Site: 009204
Alt: 220.0m
18km E of PERTH CBD


  Time     Wind        Temp  DP   Baro     Rain since   Rain past  Vis(m), Cloud(base in m), Weather
  local        km/h                         9am  last   hr   10m    
Tue 18:00    W  7/ 11  13.7 12.1  ------   ----  ----  ----  ----   ----- 
Tue 18:30   NW  6/  7  13.5 12.2  ------   ----  ----  ----  ----   ----- 
Tue 19:00    W  7/ 11  13.6 12.5  ------   ----  ----  ----  ----   ----- 
Tue 19:30   NW  7/ 11  13.7 12.6  ------   ----  ----  ----  ----   ----- 
Tue 20:00    N  6/  7  13.4 12.3  ------   ----  ----  ----  ----   ----- 
Tue 20:30    W  6/  9  13.5 12.6  ------   ----  ----  ----  ----   ----- 
Tue 21:00    N  4/  7  13.1 12.6  ------   ----  ----  ----  ----   ----- 
Tue 21:30    N  4/  7  13.0 12.7  ------   ----  ----  ----  ----   ----- 
Tue 22:00    N  6/  7  13.1 13.1  ------   ----  ----  ----  ----   ----- 
Tue 22:30  NNE  4/  6  12.9 12.9  ------   ----  ----  ----  ----   ----- 
Tue 23:00    N 11/ 15  12.9 12.9  ------   ----  ----  ----  ----   ----- 
Tue 23:00    N 11/ 15  12.9 12.9  ------   ----  ----  ----  ----   ----- 

HARVEY

Site: 009GHV
Alt: 38 m
35km NE of BUNBURY


  Time     Wind        Temp  DP   Baro     Rain since   Rain past  Vis(m), Cloud(base in m), Weather
  local        km/h                         9am  last   hr   10m    
Tue 18:00  NNE  2/---  14.4 12.6  ------    8.8   0.0   0.0   0.0   ----- 
Tue 18:30   NW  2/---  14.6 12.9  ------    9.4   0.6   0.6   0.6   ----- 
Tue 19:00    N  2/---  14.0 12.4  ------    9.6   0.2   0.8   0.0   ----- 
Tue 19:30  NNE  2/---  13.3 11.8  ------    9.6   0.0   0.2   0.0   ----- 
Tue 20:00  NNE  2/---  13.6 12.2  ------    9.6   0.0   0.0   0.0   ----- 
Tue 20:30  NNE  2/---  13.3 11.9  ------    9.8   0.2   0.2   0.0   ----- 
Tue 21:00  ENE  2/---  12.9 11.5  ------    9.8   0.0   0.2   0.0   ----- 
Tue 21:30   NE  2/---  12.3 11.1  ------    9.8   0.0   0.0   0.0   ----- 
Tue 22:00  NNE  2/---  12.1 10.7  ------    9.8   0.0   0.0   0.0   ----- 
Tue 22:30  ENE  2/---  11.1  9.8  ------    9.8   0.0   0.0   0.0   ----- 
Tue 23:00    W  2/---  10.7  9.5  ------    9.8   0.0   0.0   0.0   ----- 
Tue 23:00    W  2/---  10.7  9.5  ------    9.8   0.0  ----   0.0   ----- 

HILLARYS BOAT HARBOUR NTC AWS

Site: 009265
Alt: 0.0m
18km NW of PERTH CBD


  Time     Wind        Temp  DP   Baro     Rain since   Rain past  Vis(m), Cloud(base in m), Weather
  local        km/h                         9am  last   hr   10m    
Tue 18:00    W 13/ 22  17.9----  1025.2   ----  ----  ----  ----   ----- 
Tue 18:30  SSW  6/ 11  17.7----  1025.5   ----  ----  ----  ----   ----- 
Tue 19:00   SW  4/ 11  18.0----  1025.7   ----  ----  ----  ----   ----- 
Tue 19:30    W 20/ 30  17.7----  1025.9   ----  ----  ----  ----   ----- 
Tue 20:00    W 19/ 26  17.3----  1026.0   ----  ----  ----  ----   ----- 
Tue 20:30  WSW 17/ 22  17.6----  1026.2   ----  ----  ----  ----   ----- 
Tue 21:00    W  7/ 11  16.5----  1026.3   ----  ----  ----  ----   ----- 
Tue 21:30   NW 11/ 20  16.7----  1026.3   ----  ----  ----  ----   ----- 
Tue 22:00    W  9/ 17  16.0----  1026.5   ----  ----  ----  ----   ----- 
Tue 22:30  WNW 11/ 19  15.8----  1026.6   ----  ----  ----  ----   ----- 
Tue 23:00  NNW  6/  9  15.5----  1026.6   ----  ----  ----  ----   ----- 
Tue 23:00  NNW  6/  9  15.5----  1026.6   ----  ----  ----  ----   ----- 

HOPETOUN NORTH

Site: 009961
Alt: 26.0m
39km S of RAVENSTHORPE


  Time     Wind        Temp  DP   Baro     Rain since   Rain past  Vis(m), Cloud(base in m), Weather
  local        km/h                         9am  last   hr   10m    
Tue 18:00  NNW 11/ 15  15.4  9.7  1022.7    0.0   0.0   0.0   0.0   ----- 
Tue 18:30  NNW 15/ 28  15.1  9.7  1022.9    0.0   0.0   0.0   0.0   ----- 
Tue 19:00  NNW 15/ 24  14.7  9.9  1023.2    0.0   0.0   0.0   0.0   ----- 
Tue 19:30   NW 11/ 19  14.6 10.0  1023.4    0.0   0.0   0.0   0.0   ----- 
Tue 20:00  WNW 11/ 19  15.1 10.5  1023.5    0.0   0.0   0.0   0.0   ----- 
Tue 20:30  WNW 17/ 26  15.2 10.4  1023.7    0.0   0.0   0.0   0.0   ----- 
Tue 21:00  WNW 17/ 24  14.7 10.5  1023.9    0.0   0.0   0.0   0.0   ----- 
Tue 21:30  WNW 17/ 26  14.3 10.7  1023.8    0.0   0.0   0.0   0.0   ----- 
Tue 22:00  WNW 15/ 20  14.1 10.7  1023.8    0.0   0.0   0.0   0.0   ----- 
Tue 22:30  WNW 11/ 19  13.5 10.7  1024.1    0.0   0.0   0.0   0.0   ----- 
Tue 23:00  WNW 13/ 20  13.4 10.9  1024.0    0.0   0.0   0.0   0.0   ----- 
Tue 23:00  WNW 13/ 20  13.4 10.9  1024.0    0.0   0.0  ----   0.0   ----- 

INNER DOLPHIN PYLON

Site: 009091
Alt: 0.0m
5km SSW of PERTH CBD


  Time     Wind        Temp  DP   Baro     Rain since   Rain past  Vis(m), Cloud(base in m), Weather
  local        km/h                         9am  last   hr   10m    
Tue 18:00    W  9/ 13 --------  ------   ----  ----  ----  ----   ----- 
Tue 18:30  WNW  7/ 17 --------  ------   ----  ----  ----  ----   ----- 
Tue 19:00    W 11/ 17 --------  ------   ----  ----  ----  ----   ----- 
Tue 19:30  WSW 17/ 26 --------  ------   ----  ----  ----  ----   ----- 
Tue 20:00   SW  7/ 11 --------  ------   ----  ----  ----  ----   ----- 
Tue 20:30  WSW  9/ 13 --------  ------   ----  ----  ----  ----   ----- 
Tue 21:00  NNE  6/  7 --------  ------   ----  ----  ----  ----   ----- 
Tue 21:30  NNW  9/ 13 --------  ------   ----  ----  ----  ----   ----- 
Tue 22:00  NNW  9/ 11 --------  ------   ----  ----  ----  ----   ----- 
Tue 22:30   NW  6/ 11 --------  ------   ----  ----  ----  ----   ----- 
Tue 23:00    N  9/ 13 --------  ------   ----  ----  ----  ----   ----- 
Tue 23:00    N  9/ 13 --------  ------   ----  ----  ----  ----   ----- 

JANDAKOT AERO

Site: 009172
Alt: 30.0m
17km S of PERTH CBD


  Time     Wind        Temp  DP   Baro     Rain since   Rain past  Vis(m), Cloud(base in m), Weather
  local        km/h                         9am  last   hr   10m    
Tue 18:00    W  7/ 11  15.3 13.7  1025.5    1.0   0.0   0.0   0.0   10000|BR2640 
Tue 18:30  WNW  7/ 11  15.3 13.8  1026.0    1.0   0.0   0.0   0.0   10000|OC1590 
Tue 19:00  WNW  7/  9  15.5 13.7  1026.2    1.0   0.0   0.0   0.0   10000|SC 720 SC 870 SC1110 
Tue 19:30   SW  7/ 11  15.0 14.2  1026.4    1.0   0.0   0.0   0.0   10000|SC 480 BR 660 BR1110 
Tue 19:34   SW  9/ 15  15.2 14.6  1026.4    1.0   0.0  ----   0.0   10000|BR 420 BR 660 BR1110 
Tue 19:47    W 13/ 19  15.1 14.5  1026.3    1.0   0.0  ----   0.0   10000|SC 420 SC 660 BR1350 
Tue 19:47    W 13/ 19  15.1 14.5  1026.3    1.0   0.0  ----   0.0   10000|SC 420 SC 660 BR1350 
Tue 20:00    W 11/ 15  14.7 14.1  1026.3    1.0   0.0   0.0   0.0   10000|SC 360 SC1350 BR1560 
Tue 20:30  WSW  7/  9  14.1 13.6  1026.6    1.0   0.0   0.0   0.0   10000|BR 570 OC1860 
Tue 20:53   NW  6/  9  14.2 14.0  1026.6    1.8   0.8  ----   0.8    5000|BR 510 BR 720 OC1020 
Tue 21:00    N  7/  9  14.2 14.2  1026.6    2.0   0.2   1.0   0.4    6000|SC 510 BR 780 OC1020 
Tue 21:07  NNE  7/  9  14.0 14.0  1026.6    2.0   0.0  ----   0.0   10000|SC 570 BR 780 OC 960 
Tue 21:07  NNE  7/  9  14.0 14.0  1026.6    2.0   0.0  ----   0.0   10000|SC 570 BR 780 OC 960 
Tue 21:30  NNE 11/ 11  14.1 14.1  1026.5    2.0   0.0   1.0   0.0   10000|SC 390 BR 630 OC 990 
Tue 21:41    N 11/ 11  14.3 14.3  1026.6    2.4   0.4  ----   0.2    5000|SC 390 BR 630 OC1020 
Tue 21:54    N 11/ 13  14.5 14.5  1026.6    3.0   0.6  ----   0.6    6000|SC 330 BR 630 BR1050 
Tue 22:00    N 13/ 15  14.4 14.4  1026.6    3.0   0.0   1.0   0.2    9000|SC 330 BR 630 BR 990 
Tue 22:30    N 15/ 19  14.1 14.1  1026.6    3.0   0.0   1.0   0.0   10000|SC 420 SC 690 BR1020 
Tue 22:49    N 13/ 15  14.0 14.0  1026.8    3.0   0.0  ----   0.0   10000|BR 420 BR 690 OC2400 
Tue 23:00    N 11/ 13  14.0 14.0  1026.8    3.0   0.0   0.0   0.0   10000|BR 420 OC 690 OC2400 
Tue 23:00    N 11/ 13  14.0 14.0  1026.8    3.0   0.0  ----   0.0   10000|BR 420 OC 690 OC2400 

JURIEN BAY AG STATION

Site: 009URB
Alt: 80m
17km E of JURIEN BAY


  Time     Wind        Temp  DP   Baro     Rain since   Rain past  Vis(m), Cloud(base in m), Weather
  local        km/h                         9am  last   hr   10m    
Tue 18:00   SW  2/  4  15.1 10.7  ------    0.0   0.0   0.0   0.0   ----- 
Tue 18:30    C  0/  2  14.9 10.8  ------    0.0   0.0   0.0   0.0   ----- 
Tue 18:30    C  0/  2  14.9 10.8  ------    0.0   0.0  ----   0.0   ----- 
Tue 19:00    C  0/  2  14.6 10.9  ------    0.0   0.0   0.0   0.0   ----- 
Tue 19:00    C  0/  2  14.6 10.9  ------    0.0   0.0  ----   0.0   ----- 
Tue 19:30   SW  2/  4  14.4 11.1  ------    0.0   0.0   0.0   0.0   ----- 
Tue 19:30   SW  2/  4  14.4 11.1  ------    0.0   0.0  ----   0.0   ----- 
Tue 20:00    E  2/  2  12.9 10.7  ------    0.0   0.0   0.0   0.0   ----- 
Tue 20:00    E  2/  2  12.9 10.7  ------    0.0   0.0  ----   0.0   ----- 
Tue 20:30  NNE  2/  4  13.0 10.5  ------    0.0   0.0   0.0   0.0   ----- 
Tue 21:00   NE  2/  6  12.5 10.2  ------    0.0   0.0   0.0   0.0   ----- 
Tue 21:30    E  4/  6  11.3  9.7  ------    0.0   0.0   0.0   0.0   ----- 
Tue 22:00    E  4/  6   9.7  8.6  ------    0.0   0.0   0.0   0.0   ----- 
Tue 22:30    E  4/  6  10.0  9.1  ------    0.0   0.0   0.0   0.0   ----- 
Tue 23:00    E  4/  6  10.2  9.3  ------    0.0   0.0   0.0   0.0   ----- 

LANCELIN EAST AG STATION

Site: 009GLE
Alt: m
km of


  Time     Wind        Temp  DP   Baro     Rain since   Rain past  Vis(m), Cloud(base in m), Weather
  local        km/h                         9am  last   hr   10m    
Tue 18:00  WNW  2/  6  13.8 10.7  ------    0.2   0.0   0.0   0.0   ----- 
Tue 18:30   NW  6/  7  14.3 10.7  ------    0.2   0.0   0.0   0.0   ----- 
Tue 19:00   NW  6/  7  13.6 11.2  ------    0.2   0.0   0.0   0.0   ----- 
Tue 19:30    N  6/  7  13.4 11.1  ------    0.2   0.0   0.0   0.0   ----- 
Tue 19:30    N  6/  7  13.4 11.1  ------    0.2   0.0  ----   0.0   ----- 
Tue 20:00   NW  6/  7  13.5 11.2  ------    0.2   0.0   0.0   0.0   ----- 
Tue 20:30   NW  4/  7  12.5 11.0  ------    0.2   0.0   0.0   0.0   ----- 
Tue 21:00    N  6/  7  12.4 11.2  ------    0.2   0.0   0.0   0.0   ----- 
Tue 21:30    N  4/  7  11.8 10.9  ------    0.2   0.0   0.0   0.0   ----- 
Tue 22:00    N  6/  7  11.4 10.6  ------    0.2   0.0   0.0   0.0   ----- 
Tue 22:30    N  6/  9  11.3 10.6  ------    0.2   0.0   0.0   0.0   ----- 
Tue 23:00  NNE  6/  7  11.2 10.5  ------    0.2   0.0   0.0   0.0   ----- 

MANDURAH

Site: 009977
Alt: 3.0m
1km NW of MANDURAH


  Time     Wind        Temp  DP   Baro     Rain since   Rain past  Vis(m), Cloud(base in m), Weather
  local        km/h                         9am  last   hr   10m    
Tue 18:00    W 13/ 20  15.6 14.3  1025.2    4.8   0.4   2.4   0.0   ----- 
Tue 18:30  WNW 17/ 20  15.9 15.1  1025.5    4.8   0.0   0.4   0.0   ----- 
Tue 19:00    W 13/ 19  15.4 14.8  1025.8    9.4   4.6   4.6   1.8   ----- 
Tue 19:30    C  0/  2  15.1 14.6  1025.9    9.4   0.0   4.6   0.0   ----- 
Tue 20:00    S  4/  7  15.2 14.7  1026.0   10.4   1.0   1.0   0.0   ----- 
Tue 20:30    C  0/  6  15.2 14.9  1026.1   10.6   0.2   1.2   0.2   ----- 
Tue 21:00    S  2/  6  15.2 15.0  1026.1   10.6   0.0   0.2   0.0   ----- 
Tue 21:30    S  2/  4  14.4 14.2  1026.1   10.6   0.0   0.0   0.0   ----- 
Tue 22:00    S  9/  9  14.9 14.7  1026.1   10.6   0.0   0.0   0.0   ----- 
Tue 22:30    S  6/  9  14.5 14.3  1026.2   10.6   0.0   0.0   0.0   ----- 
Tue 23:00    S  6/  9  14.3 14.1  1026.3   10.6   0.0   0.0   0.0   ----- 
Tue 23:00    S  6/  9  14.3 14.1  1026.3   10.6   0.0  ----   0.0   ----- 

MANJIMUP

Site: 009573
Alt: 286.7m
1km S of MANJIMUP


  Time     Wind        Temp  DP   Baro     Rain since   Rain past  Vis(m), Cloud(base in m), Weather
  local        km/h                         9am  last   hr   10m    
Tue 18:59    W  6/  7  12.4 11.6  1024.6    1.6   0.2  ----   0.0   ----- 
Tue 19:59    W  6/  7  12.4 11.9  1024.9    1.6   0.0  ----   0.0   ----- 
Tue 20:59    W  7/  9  11.3 10.8  1025.1    1.6   0.0  ----   0.0   ----- 
Tue 21:59  WNW  7/ 11  11.8 11.6  1025.3    1.6   0.0  ----   0.0   ----- 
Tue 22:59  WNW  7/ 11  11.8 11.6  1025.5    1.6   0.0  ----   0.0   ----- 
Tue 22:59  WNW  7/ 11  11.8 11.6  1025.5    1.6   0.0  ----   0.0   ----- 

MANJIMUP AG STATION

Site: 009GMA
Alt: m
km of


  Time     Wind        Temp  DP   Baro     Rain since   Rain past  Vis(m), Cloud(base in m), Weather
  local        km/h                         9am  last   hr   10m    
Tue 18:00  WSW  4/  7  13.4 12.7  ------    2.6   0.0   0.0   0.0   ----- 
Tue 18:30    W  4/  4  12.8 12.1  ------    2.8   0.2   0.2   0.2   ----- 
Tue 19:00    W  2/  6  12.9 12.4  ------    2.8   0.0   0.2   0.0   ----- 
Tue 19:30  WNW  2/  6  12.9 12.4  ------    2.8   0.0   0.0   0.0   ----- 
Tue 19:30  WNW  2/  6  12.9 12.4  ------    2.8   0.0  ----   0.0   ----- 
Tue 20:00  WNW  2/  6  12.8 12.4  ------    2.8   0.0   0.0   0.0   ----- 
Tue 20:30  WNW  4/  7  12.4 12.1  ------    2.8   0.0   0.0   0.0   ----- 
Tue 21:00    W  4/  6  12.4 12.3  ------    2.8   0.0   0.0   0.0   ----- 
Tue 21:30  WNW  2/  6  12.5 12.4  ------    2.8   0.0   0.0   0.0   ----- 
Tue 22:00   NW  2/  4  12.4 12.3  ------    2.8   0.0   0.0   0.0   ----- 
Tue 22:30  NNW  2/  6  12.2 12.1  ------    2.8   0.0   0.0   0.0   ----- 
Tue 23:00  WNW  2/  6  12.3 12.2  ------    3.0   0.0   0.0   0.2   ----- 

MANYPEAKS AG STATION

Site: 009GMP
Alt: 124.0m
33km NE of ALBANY


  Time     Wind        Temp  DP   Baro     Rain since   Rain past  Vis(m), Cloud(base in m), Weather
  local        km/h                         9am  last   hr   10m    
Tue 18:00  WNW  6/ 11  13.9 12.0  ------    0.2   0.0   0.0   0.0   ----- 
Tue 18:30  NNW  4/  7  12.9 11.7  ------    0.2   0.0   0.0   0.0   ----- 
Tue 18:30  NNW  4/  7  12.9 11.7  ------    0.2   0.0  ----   0.0   ----- 
Tue 19:00  WNW  6/ 13  13.1 12.2  ------    0.2   0.0   0.0   0.0   ----- 
Tue 19:00  WNW  6/ 13  13.1 12.2  ------    0.2   0.0  ----   0.0   ----- 
Tue 19:30  WNW  4/ 11  13.3 12.4  ------    0.2   0.0   0.0   0.0   ----- 
Tue 19:30  WNW  4/ 11  13.3 12.4  ------    0.2   0.0  ----   0.0   ----- 
Tue 20:00   NW  6/ 11  13.5 12.5  ------    0.2   0.0   0.0   0.0   ----- 
Tue 20:00   NW  6/ 11  13.5 12.5  ------    0.2   0.0  ----   0.0   ----- 
Tue 20:30   NW  6/ 11  13.2 12.3  ------    0.2   0.0   0.0   0.0   ----- 
Tue 21:00   NW  4/  7  12.8 12.0  ------    0.2   0.0   0.0   0.0   ----- 
Tue 21:00   NW  4/  7  12.8 12.0  ------    0.2   0.0  ----   0.0   ----- 
Tue 21:30  WNW  4/  9  12.6 11.8  ------    0.2   0.0   0.0   0.0   ----- 
Tue 22:00  WNW  4/  9  12.3 11.6  ------    0.2   0.0   0.0   0.0   ----- 
Tue 22:00  WNW  4/  9  12.3 11.6  ------    0.2   0.0  ----   0.0   ----- 
Tue 22:30   NW  4/  9  11.9 11.2  ------    0.2   0.0   0.0   0.0   ----- 
Tue 23:00   NW  6/  9  11.5 10.9  ------    0.2   0.0   0.0   0.0   ----- 
Tue 23:00   NW  6/  9  11.5 10.9  ------    0.2   0.0  ----   0.0   ----- 

MERREDIN AG STATION

Site: 009GME
Alt: m
km of


  Time     Wind        Temp  DP   Baro     Rain since   Rain past  Vis(m), Cloud(base in m), Weather
  local        km/h                         9am  last   hr   10m    
Tue 18:00   NW  4/  6  12.1  9.1  ------    0.0   0.0   0.0   0.0   ----- 
Tue 18:30  NNW  2/  7  11.5  9.1  ------    0.0   0.0   0.0   0.0   ----- 
Tue 18:30  NNW  2/  7  11.5  9.1  ------    0.0   0.0  ----   0.0   ----- 
Tue 19:00    C  0/  2  10.2  8.4  ------    0.0   0.0   0.0   0.0   ----- 
Tue 19:00    C  0/  2  10.2  8.4  ------    0.0   0.0  ----   0.0   ----- 
Tue 19:30    N  2/  4  10.1  8.6  ------    0.0   0.0   0.0   0.0   ----- 
Tue 19:30    N  2/  4  10.1  8.6  ------    0.0   0.0  ----   0.0   ----- 
Tue 20:00    C  0/  0   9.2  7.9  ------    0.0   0.0   0.0   0.0   ----- 
Tue 20:00    C  0/  0   9.2  7.9  ------    0.0   0.0  ----   0.0   ----- 
Tue 20:30    C  0/  0   9.5  8.3  ------    0.0   0.0   0.0   0.0   ----- 
Tue 21:00    C  0/  2   9.0  7.9  ------    0.0   0.0   0.0   0.0   ----- 
Tue 21:00    C  0/  2   9.0  7.9  ------    0.0   0.0  ----   0.0   ----- 
Tue 21:30   NW  2/  4   9.5  8.1  ------    0.0   0.0   0.0   0.0   ----- 
Tue 22:00   NW  2/  7   9.9  8.3  ------    0.0   0.0   0.0   0.0   ----- 
Tue 22:00   NW  2/  7   9.9  8.3  ------    0.0   0.0  ----   0.0   ----- 
Tue 22:30  WNW  2/  6   9.5  8.1  ------    0.0   0.0   0.0   0.0   ----- 
Tue 23:00    C  0/  4   8.9  7.7  ------    0.0   0.0   0.0   0.0   ----- 
Tue 23:00    C  0/  4   8.9  7.7  ------    0.0   0.0  ----   0.0   ----- 

MILLENDON (SWAN VALLEY)

Site: 009281
Alt: 16.0m
km of


  Time     Wind        Temp  DP   Baro     Rain since   Rain past  Vis(m), Cloud(base in m), Weather
  local        km/h                         9am  last   hr   10m    
Tue 18:00    C  0/  0  14.2 12.8  ------    0.4   0.0   0.0   0.0   ----- 
Tue 18:30  NNE  2/  4  13.4 12.1  ------    0.4   0.0   0.0   0.0   ----- 
Tue 19:00    C  0/  0  13.0 11.9  ------    0.4   0.0   0.0   0.0   ----- 
Tue 19:30    C  0/  4  12.4 11.6  ------    0.4   0.0   0.0   0.0   ----- 
Tue 20:00    C  0/  0  12.6 12.0  ------    0.6   0.2   0.2   0.0   ----- 
Tue 20:30    N  4/  7  13.3 12.8  ------    2.2   1.6   1.8   0.6   ----- 
Tue 21:00    C  0/  0  13.2 12.7  ------    2.2   0.0   1.6   0.0   ----- 
Tue 21:30  NNE  2/  6  12.9 12.4  ------    2.2   0.0   0.0   0.0   ----- 
Tue 22:00    C  0/  0  12.6 12.1  ------    2.2   0.0   0.0   0.0   ----- 
Tue 22:30    C  0/  0  12.9 12.6  ------    2.2   0.0   0.0   0.0   ----- 
Tue 23:00    N  2/  4  12.9 12.6  ------    2.4   0.2   0.2   0.0   ----- 
Tue 23:00    N  2/  4  12.9 12.6  ------    2.4   0.0  ----   0.0   ----- 

MOUNT BARKER AG STATION

Site: 009GMB
Alt: m
km of


  Time     Wind        Temp  DP   Baro     Rain since   Rain past  Vis(m), Cloud(base in m), Weather
  local        km/h                         9am  last   hr   10m    
Tue 18:00  NNW  6/  9  13.1 11.8  ------    1.4   0.0   0.0   0.0   ----- 
Tue 18:30  NNW  4/  7  13.1 11.9  ------    1.4   0.0   0.0   0.0   ----- 
Tue 19:00  WNW  6/  9  12.7 11.6  ------    1.4   0.0   0.0   0.0   ----- 
Tue 19:30   NW  4/  6  12.4 11.4  ------    1.4   0.0   0.0   0.0   ----- 
Tue 19:30   NW  4/  6  12.4 11.4  ------    1.4   0.0  ----   0.0   ----- 
Tue 20:00  WNW  6/  9  12.3 11.4  ------    1.4   0.0   0.0   0.0   ----- 
Tue 20:30   NW  4/  7  11.8 11.0  ------    1.4   0.0   0.0   0.0   ----- 
Tue 21:00  NNW  4/  6  11.7 11.0  ------    1.4   0.0   0.0   0.0   ----- 
Tue 21:00  NNW  4/  6  11.7 11.0  ------    1.4   0.0  ----   0.0   ----- 
Tue 21:30   NW  6/  7  11.1 10.4  ------    1.4   0.0   0.0   0.0   ----- 
Tue 22:00   NW  6/  7  10.7 10.1  ------    1.4   0.0   0.0   0.0   ----- 
Tue 22:30  NNW  4/  7  10.3  9.7  ------    1.4   0.0   0.0   0.0   ----- 
Tue 23:00  NNW  6/  9  10.5 10.0  ------    1.4   0.0   0.0   0.0   ----- 

MOUNT HOWICK AG STATION

Site: 009GHO
Alt: 120 m
78km ENE of ESPERANCE


  Time     Wind        Temp  DP   Baro     Rain since   Rain past  Vis(m), Cloud(base in m), Weather
  local        km/h                         9am  last   hr   10m    
Tue 18:00  NNW  7/ 11  10.1  6.9  ------    0.0   0.0   0.0   0.0   ----- 
Tue 18:30  NNW  9/ 13  10.2  7.1  ------    0.0   0.0   0.0   0.0   ----- 
Tue 18:30  NNW  9/ 13  10.2  7.1  ------    0.0   0.0  ----   0.0   ----- 
Tue 19:00  NNW  7/ 13  10.1  7.0  ------    0.0   0.0   0.0   0.0   ----- 
Tue 19:00  NNW  7/ 13  10.1  7.0  ------    0.0   0.0  ----   0.0   ----- 
Tue 19:30  NNW  7/ 13   9.8  7.0  ------    0.0   0.0   0.0   0.0   ----- 
Tue 19:30  NNW  7/ 13   9.8  7.0  ------    0.0   0.0  ----   0.0   ----- 
Tue 20:00  NNW  9/ 15  10.1  6.9  ------    0.0   0.0   0.0   0.0   ----- 
Tue 20:00  NNW  9/ 15  10.1  6.9  ------    0.0   0.0  ----   0.0   ----- 
Tue 20:30  NNW  9/ 15   9.5  6.5  ------    0.0   0.0   0.0   0.0   ----- 
Tue 21:00  NNW 13/ 17   8.7  6.1  ------    0.0   0.0   0.0   0.0   ----- 
Tue 21:00  NNW 13/ 17   8.7  6.1  ------    0.0   0.0  ----   0.0   ----- 
Tue 21:30  NNW 13/ 19   8.9  6.4  ------    0.0   0.0   0.0   0.0   ----- 
Tue 22:00   NW 13/ 22  10.8  7.4  ------    0.0   0.0   0.0   0.0   ----- 
Tue 22:00   NW 13/ 22  10.8  7.4  ------    0.0   0.0  ----   0.0   ----- 
Tue 22:30  WNW 24/ 35  12.2  8.0  ------    0.0   0.0   0.0   0.0   ----- 
Tue 23:00  WNW 20/ 30  12.1  8.1  ------    0.0   0.0   0.0   0.0   ----- 
Tue 23:00  WNW 20/ 30  12.1  8.1  ------    0.0   0.0  ----   0.0   ----- 

MYALUP AG STATION

Site: 009GMY
Alt: m
km of


  Time     Wind        Temp  DP   Baro     Rain since   Rain past  Vis(m), Cloud(base in m), Weather
  local        km/h                         9am  last   hr   10m    
Tue 18:00    W  4/ 17  15.1 14.2  ------    3.0   0.2   0.2   0.2   ----- 
Tue 18:30    C  0/  2  14.7 13.8  ------    3.2   0.2   0.4   0.0   ----- 
Tue 18:30    C  0/  2  14.7 13.8  ------    3.2   0.0  ----   0.0   ----- 
Tue 19:00    C  0/  2  13.8 13.1  ------    3.2   0.0   0.2   0.0   ----- 
Tue 19:00    C  0/  2  13.8 13.1  ------    3.2   0.0  ----   0.0   ----- 
Tue 19:30    C  0/  4  13.2 12.6  ------    3.2   0.0   0.0   0.0   ----- 
Tue 19:30    C  0/  4  13.2 12.6  ------    3.2   0.0  ----   0.0   ----- 
Tue 20:00    E  2/  4  13.3 12.7  ------    3.4   0.2   0.2   0.0   ----- 
Tue 20:00    E  2/  4  13.3 12.7  ------    3.4   0.0  ----   0.0   ----- 
Tue 20:30    C  0/  2  13.0 12.5  ------    3.4   0.0   0.2   0.0   ----- 
Tue 21:00    C  0/  0  12.4 11.9  ------    3.4   0.0   0.0   0.0   ----- 
Tue 21:00    C  0/  0  12.4 11.9  ------    3.4   0.0  ----   0.0   ----- 
Tue 21:30    C  0/  0  12.0 11.6  ------    3.4   0.0   0.0   0.0   ----- 
Tue 22:00  ENE  2/  4  10.9 10.5  ------    3.4   0.0   0.0   0.0   ----- 
Tue 22:00  ENE  2/  4  10.9 10.5  ------    3.4   0.0  ----   0.0   ----- 
Tue 22:30    C  0/  2  11.6 11.3  ------    3.4   0.0   0.0   0.0   ----- 
Tue 23:00    C  0/  2  11.9 11.6  ------    3.4   0.0   0.0   0.0   ----- 
Tue 23:00    C  0/  2  11.9 11.6  ------    3.4   0.0  ----   0.0   ----- 

NEW NORCIA AG STATION

Site: 009NCA
Alt: 260m
12km S of NEW NORCIA


  Time     Wind        Temp  DP   Baro     Rain since   Rain past  Vis(m), Cloud(base in m), Weather
  local        km/h                         9am  last   hr   10m    
Tue 18:00    C  0/  2  12.3 11.4  ------    1.2   0.0   0.0   0.0   ----- 
Tue 18:30    C  0/  2  11.8 11.2  ------    1.2   0.0   0.0   0.0   ----- 
Tue 19:00    C  0/  0  11.9 11.4  ------    1.2   0.0   0.0   0.0   ----- 
Tue 19:30    C  0/  2  11.2 10.8  ------    1.2   0.0   0.0   0.0   ----- 
Tue 19:30    C  0/  2  11.2 10.8  ------    1.2   0.0  ----   0.0   ----- 
Tue 20:00    C  0/  2  11.0 10.7  ------    1.2   0.0   0.0   0.0   ----- 
Tue 20:30    C  0/  0  11.3 11.1  ------    1.2   0.0   0.0   0.0   ----- 
Tue 21:00    C  0/  0  11.2 11.0  ------    1.2   0.0   0.0   0.0   ----- 
Tue 21:30    C  0/  2  11.2 11.1  ------    1.2   0.0   0.0   0.0   ----- 
Tue 22:00    C  0/  0  10.9 10.8  ------    1.2   0.0   0.0   0.0   ----- 
Tue 22:30    C  0/  2  10.6 10.5  ------    1.2   0.0   0.0   0.0   ----- 
Tue 23:00    C  0/  0   9.8  9.8  ------    1.2   0.0   0.0   0.0   ----- 

NORTH WALPOLE

Site: 009998
Alt: 73.0m
95km SE of MANJIMUP


  Time     Wind        Temp  DP   Baro     Rain since   Rain past  Vis(m), Cloud(base in m), Weather
  local        km/h                         9am  last   hr   10m    
Tue 18:00    W  7/  9  13.9 12.3  1022.8    3.0   0.0   0.0   0.0   ----- 
Tue 18:30    W  7/ 11  13.1 11.5  1023.1    3.0   0.0   0.0   0.0   ----- 
Tue 19:00    W  9/ 11  13.4 12.3  1023.4    3.0   0.0   0.0   0.0   ----- 
Tue 19:30  WNW  7/  9  13.0 11.9  1023.4    3.0   0.0   0.0   0.0   ----- 
Tue 20:00   NW  9/ 13  12.3 11.5  1023.7    3.0   0.0   0.0   0.0   ----- 
Tue 20:30   NW 11/ 15  12.7 12.5  1023.8    3.0   0.0   0.0   0.0   ----- 
Tue 21:00   NW  7/ 11  12.6 12.4  1023.9    3.0   0.0   0.0   0.0   ----- 
Tue 21:30   NW 13/ 17  12.9 12.7  1023.9    3.0   0.0   0.0   0.0   ----- 
Tue 22:00   NW 11/ 17  12.6 12.4  1024.0    3.0   0.0   0.0   0.0   ----- 
Tue 22:30   NW 13/ 17  12.9 12.9  1024.1    3.2   0.2   0.2   0.0   ----- 
Tue 23:00   NW 15/ 20  12.7 12.7  1024.1    3.2   0.0   0.2   0.0   ----- 
Tue 23:00   NW 15/ 20  12.7 12.7  1024.1    3.2   0.0  ----   0.0   ----- 

OCEAN REEF

Site: 009214
Alt: 10.0m
25km NNW of PERTH CBD


  Time     Wind        Temp  DP   Baro     Rain since   Rain past  Vis(m), Cloud(base in m), Weather
  local        km/h                         9am  last   hr   10m    
Tue 18:00  WSW 24/ 26 --------  ------   ----  ----  ----  ----   ----- 
Tue 18:30    W 17/ 20 --------  ------   ----  ----  ----  ----   ----- 
Tue 19:00    W 17/ 20 --------  ------   ----  ----  ----  ----   ----- 
Tue 19:30    W 24/ 32 --------  ------   ----  ----  ----  ----   ----- 
Tue 20:00  WSW 26/ 30 --------  ------   ----  ----  ----  ----   ----- 
Tue 20:30  WSW 19/ 24 --------  ------   ----  ----  ----  ----   ----- 
Tue 21:00  WSW 17/ 20 --------  ------   ----  ----  ----  ----   ----- 
Tue 21:30   NW 26/ 32 --------  ------   ----  ----  ----  ----   ----- 
Tue 22:00  NNW 13/ 17 --------  ------   ----  ----  ----  ----   ----- 
Tue 22:30    W 19/ 24 --------  ------   ----  ----  ----  ----   ----- 
Tue 23:00   NW 17/ 19 --------  ------   ----  ----  ----  ----   ----- 
Tue 23:00   NW 17/ 19 --------  ------   ----  ----  ----  ----   ----- 

PEARCE RAAF

Site: 009053
Alt: 40.0m
35km NNE of PERTH CBD


  Time     Wind        Temp  DP   Baro     Rain since   Rain past  Vis(m), Cloud(base in m), Weather
  local        km/h                         9am  last   hr   10m    
Tue 18:00  NNE  2/  9  14.9 12.8  1026.1    1.6   0.2   0.2   0.0   10000|SC 840 SC1170 SC1590 
Tue 18:30    N 11/ 13  14.4 12.8  1026.4    1.6   0.0   0.2   0.0   10000|SC 990 
Tue 19:00    N  9/ 11  14.1 12.3  1026.6    1.6   0.0   0.0   0.0   10000|SC 900 SC1110 BR1680 
Tue 19:30    N 11/ 13  13.9 12.3  1026.7    1.6   0.0   0.0   0.0   10000|SC 900 SC1140 
Tue 20:00    N 13/ 15  13.5 11.7  1026.8    1.6   0.0   0.0   0.0   10000|SC1020 SC1290 
Tue 20:30    N 13/ 15  13.9 12.1  1026.8    1.6   0.0   0.0   0.0   10000|BR1020 BR1800 
Tue 21:00   NW  6/  7  13.3 11.7  1027.1    1.6   0.0   0.0   0.0   10000|SC 780 SC 960 OC1350 
Tue 21:30    N  7/  9  12.7 11.3  1027.1    1.6   0.0   0.0   0.0   10000|SC 990 OC1470 
Tue 22:00    N  6/  9  12.6 11.5  1027.3    1.6   0.0   0.0   0.0   10000|SC 750 SC 960 BR1170 
Tue 22:12  WNW  7/ 11  12.6 11.5  1027.4    1.6   0.0  ----   0.0    6000|SC 750 SC1020 BR1170 
Tue 22:25    N  9/  9  12.5 11.6  1027.3    1.6   0.0  ----   0.0   10000|SC 540 SC 750 BR1110 
Tue 22:30    N  9/  9  12.6 11.7  1027.3    1.6   0.0   0.0   0.0   10000|SC 540 SC 750 BR1140 
Tue 23:00    N  7/  9  12.8 11.9  1027.5    1.8   0.2   0.2   0.0   10000|BR1200 BR2160 
Tue 23:00    N  7/  9  12.8 11.9  1027.5    1.8   0.0  ----   0.0   10000|BR1200 BR2160 

PEMBERTON AG STATION

Site: 009GPM
Alt: m
km of


  Time     Wind        Temp  DP   Baro     Rain since   Rain past  Vis(m), Cloud(base in m), Weather
  local        km/h                         9am  last   hr   10m    
Tue 18:00    C  0/  4  12.8 12.2  ------    7.6   0.0   0.0   0.0   ----- 
Tue 18:30  WNW  2/  6  13.3 12.8  ------    7.8   0.2   0.2   0.0   ----- 
Tue 19:00  NNW  4/  7  13.2 12.7  ------    7.8   0.0   0.2   0.0   ----- 
Tue 19:30    C  0/  6  13.0 12.5  ------    8.0   0.2   0.2   0.0   ----- 
Tue 19:30    C  0/  6  13.0 12.5  ------    8.0   0.0  ----   0.0   ----- 
Tue 20:00    C  0/  2  12.4 11.9  ------    8.0   0.0   0.2   0.0   ----- 
Tue 20:30    N  4/  6  11.8 11.3  ------    8.0   0.0   0.0   0.0   ----- 
Tue 21:00    N  2/  6  11.9 11.5  ------    8.2   0.2   0.2   0.2   ----- 
Tue 21:30  NNE  4/  6  11.6 11.2  ------    8.2   0.0   0.2   0.0   ----- 
Tue 22:00    S  2/  4  11.8 11.4  ------    8.2   0.0   0.0   0.0   ----- 
Tue 22:30  WNW  4/  7  12.6 12.3  ------    8.4   0.2   0.2   0.0   ----- 
Tue 23:00  NNW  6/  9  12.6 12.2  ------    8.6   0.0   0.0   0.0   ----- 

PERTH AIRPORT

Site: 009021
Alt: 15.4m
11km ENE of PERTH CBD


  Time     Wind        Temp  DP   Baro     Rain since   Rain past  Vis(m), Cloud(base in m), Weather
  local        km/h                         9am  last   hr   10m    
Tue 18:00   NW  7/  9  13.5 12.4  1025.8    1.6   0.0   0.0   0.0  *10000|FE 990cu SC2100sc 
Tue 18:30  WSW  9/ 11  13.5 12.8  1026.2    1.6   0.0   0.0   0.0  *10000|FE1020cu BR2100sc 
Tue 18:30  WSW  9/ 11  13.5 12.8  1026.2    1.6   0.0  ----   0.0  *10000|FE1020cu BR2100sc 
Tue 19:00   NE  7/  9  13.2 12.5  1026.4    1.8   0.2   0.2   0.0  *10000|FE1110cu BR2040sc|diSh// 
Tue 19:30  NNE  9/ 13  13.7 13.2  1026.5    1.8   0.0   0.2   0.0  *10000|SC 960cu BR1710sc 
Tue 19:30  NNE  9/ 13  13.7 13.2  1026.5    1.8   0.0  ----   0.0  *10000|SC 960cu BR1710sc 
Tue 19:30  NNE  9/ 13  13.7 13.2  1026.5    1.8   0.0  ----   0.0  *10000|SC 960cu BR1710sc 
Tue 20:00  ENE  4/  9  13.9 13.2  1026.6    1.8   0.0   0.0   0.0  *10000|FE 750cu SC1140sc BR1860sc 
Tue 20:00  ENE  4/  9  13.9 13.2  1026.6    1.8   0.0  ----   0.0  *10000|FE 750cu SC1140sc BR1860sc 
Tue 20:30    N 11/ 13  13.9 13.2  1026.9    1.8   0.0   0.0   0.0  *10000|BR 510cu BR2250sc 
Tue 20:30    N 11/ 13  13.9 13.2  1026.9    1.8   0.0  ----   0.0  *10000|BR 510cu BR2250sc 
Tue 21:00  ENE  7/  9  13.7 13.0  1026.9    1.8   0.0   0.0   0.0  *10000|BR 510cu BR1500sc 
Tue 21:00  ENE  7/  9  13.7 13.0  1026.9    1.8   0.0  ----   0.0  *10000|BR 510cu BR1500sc 
Tue 21:30   NE 11/ 13  13.6 13.1  1026.8    1.8   0.0   0.0   0.0  *10000|SC 900sc BR1380sc|diSh// 
Tue 21:43  NNE  9/ 11  13.7 13.0  1027.1    1.8   0.0  ----   0.0  * 6000|SC 570cu BR 930sc|ltShRA 
Tue 22:00   NE 11/ 15  13.6 13.1  1027.0    2.2   0.4   0.4   0.0  *10000|SC 360cu BR 840sc|ltShRA 
Tue 22:00   NE 11/ 15  13.6 13.1  1027.0    2.2   0.0  ----   0.0  *10000|SC 360cu BR 840sc|ltShRA 
Tue 22:30  NNE 11/ 13  13.4 12.8  1027.1    2.2   0.0   0.4   0.0  * 7000|FE 240st BR1200sc BR1560sc|lt//DZ 
Tue 22:30  NNE 11/ 13  13.4 12.8  1027.1    2.2   0.0  ----   0.0  * 7000|FE 240st BR1200sc BR1560sc|lt//DZ 
Tue 22:44    N 15/ 17  13.5 12.9  1027.2    2.2   0.0  ----   0.0  * 4000|BR 300st OC1500sc|md//DZ 
Tue 23:00    N 15/ 17  13.4 12.8  1027.2    2.8   0.6   0.6   0.2  * 3500|BR 240st OC 810sc|md//DZ 
Tue 23:00    N 15/ 17  13.4 12.8  1027.2    2.8   0.0  ----   0.2  * 3500|BR 240st OC 810sc|md//DZ 

PERTH METRO

Site: 009225
Alt: 24.9m
4km NNE of PERTH CBD


  Time     Wind        Temp  DP   Baro     Rain since   Rain past  Vis(m), Cloud(base in m), Weather
  local        km/h                         9am  last   hr   10m    
Tue 18:00    C  0/  0  15.0 12.7  1025.8    1.4   0.0   0.0   0.0   ----- 
Tue 18:30    W  2/  7  15.5 12.6  1026.0    1.4   0.0   0.0   0.0   ----- 
Tue 19:00  WSW  7/ 15  15.4 13.4  1026.3    1.4   0.0   0.0   0.0   ----- 
Tue 19:30    C  0/  0  14.8 13.3  1026.4    1.6   0.2   0.2   0.0   ----- 
Tue 20:00  WSW  2/  9  15.1 13.8  1026.7    1.6   0.0   0.2   0.0   ----- 
Tue 20:30    C  0/  0  14.8 13.8  1026.8    1.8   0.2   0.2   0.2   ----- 
Tue 21:00    C  0/  0  14.7 13.9  1026.8    1.8   0.0   0.2   0.0   ----- 
Tue 21:30    C  0/  0  14.7 14.1  1026.8    2.2   0.4   0.4   0.2   ----- 
Tue 22:00    C  0/  0  14.7 14.2  1026.9    2.2   0.0   0.4   0.0   ----- 
Tue 22:30  WSW  6/  9  14.7 14.4  1027.1    2.4   0.2   0.2   0.0   ----- 
Tue 23:00  NNE  9/ 11  14.1 13.8  1027.1    2.6   0.2   0.4   0.0   ----- 
Tue 23:00  NNE  9/ 11  14.1 13.8  1027.1    2.6   0.0  ----   0.0   ----- 

ROTTNEST ISLAND

Site: 009193
Alt: 43.1m
34km W of PERTH CBD


  Time     Wind        Temp  DP   Baro     Rain since   Rain past  Vis(m), Cloud(base in m), Weather
  local        km/h                         9am  last   hr   10m    
Tue 18:00    W 19/ 24  16.9 12.0  1025.4    0.2   0.0   0.0   0.0   ----- 
Tue 18:30    W 20/ 26  17.0 12.3  1025.7    0.2   0.0   0.0   0.0   ----- 
Tue 19:00  WSW 24/ 32  16.1 13.2  1026.0    0.2   0.0   0.0   0.0   ----- 
Tue 19:30  WSW 26/ 32  14.9 13.3  1026.2    2.2   2.0   2.0   0.2   ----- 
Tue 20:00    W 13/ 19  15.2 13.4  1026.2    2.2   0.0   2.0   0.0   ----- 
Tue 20:30    W 20/ 26  15.3 14.0  1026.3    2.8   0.6   0.6   0.2   ----- 
Tue 21:00  WSW 13/ 15  15.2 14.1  1026.3    3.4   0.6   1.2   0.2   ----- 
Tue 21:30    W 15/ 24  15.6 14.3  1026.3    3.8   0.4   1.0   0.0   ----- 
Tue 22:00   SW  6/  7  15.2 14.1  1026.4    5.4   1.6   2.0   0.0   ----- 
Tue 22:30   SW 17/ 22  15.7 14.1  1026.3    5.4   0.0   1.6   0.0   ----- 
Tue 23:00   SW 15/ 20  16.0 14.4  1026.5    5.4   0.0   0.0   0.0   ----- 
Tue 23:00   SW 15/ 20  16.0 14.4  1026.5    5.4   0.0  ----   0.0   ----- 

SCOTT RIVER AG STATION

Site: 009CTR
Alt: 30m
72km WNW of PEMBERTON


  Time     Wind        Temp  DP   Baro     Rain since   Rain past  Vis(m), Cloud(base in m), Weather
  local        km/h                         9am  last   hr   10m    
Tue 18:00  NNW  2/  6  14.1 13.7  ------    8.0   0.0   0.8   0.0   ----- 
Tue 18:30    C  0/  2  14.0 13.7  ------    8.0   0.0   0.0   0.0   ----- 
Tue 19:00    N  2/  6  14.0 13.8  ------    8.0   0.0   0.0   0.0   ----- 
Tue 19:30  WNW  2/  6  13.9 13.7  ------    8.0   0.0   0.0   0.0   ----- 
Tue 19:30  WNW  2/  6  13.9 13.7  ------    8.0   0.0  ----   0.0   ----- 
Tue 20:00  NNW  2/  6  13.7 13.5  ------    8.0   0.0   0.0   0.0   ----- 
Tue 20:30  NNW  4/  6  13.5 13.3  ------    8.0   0.0   0.0   0.0   ----- 
Tue 21:00   NW  2/  7  14.0 13.9  ------    8.4   0.4   0.4   0.0   ----- 
Tue 21:30    C  0/  6  14.1 14.0  ------    8.6   0.2   0.6   0.2   ----- 
Tue 22:00  NNW  2/  4  13.9 13.8  ------    8.6   0.0   0.2   0.0   ----- 
Tue 22:30  NNW  2/  6  13.7 13.6  ------    8.6   0.0   0.0   0.0   ----- 
Tue 23:00  NNW  4/  7  13.7 13.6  ------    8.6   0.0   0.0   0.0   ----- 

SHANNON

Site: 009968
Alt: 210.0m
40km SSE of MANJIMUP


  Time     Wind        Temp  DP   Baro     Rain since   Rain past  Vis(m), Cloud(base in m), Weather
  local        km/h                         9am  last   hr   10m    
Tue 18:00    C  0/  2  12.6 12.8  ------    1.6   0.2   0.2   0.0   ----- 
Tue 19:00  WNW  7/  9  11.7 12.0  ------    1.6   0.0   0.0   0.0   ----- 
Tue 20:00  NNW  9/ 11  10.8 11.1  ------    1.6   0.0   0.0   0.0   ----- 
Tue 21:00  NNW 11/ 13  11.7 12.3  ------    1.6   0.0   0.0   0.0   ----- 
Tue 22:00  NNW 11/ 13  11.9 12.5  ------    1.8   0.2   0.2   0.0   ----- 
Tue 23:00  NNW  9/ 13  11.7 12.3  ------    1.8   0.0   0.0   0.0   ----- 
Tue 23:00  NNW  9/ 13  11.7 12.3  ------    1.8   0.0  ----   0.0   ----- 

SOUTH PERTH AG STATION

Site: 009GSP
Alt: m
km of


  Time     Wind        Temp  DP   Baro     Rain since   Rain past  Vis(m), Cloud(base in m), Weather
  local        km/h                         9am  last   hr   10m    
Tue 18:00    C  0/  6  15.5 12.7  ------    1.6   0.2   0.2   0.2   ----- 
Tue 18:30    C  0/  0  14.7 12.3  ------    1.6   0.0   0.2   0.0   ----- 
Tue 19:00    C  0/  6  15.2 13.1  ------    1.6   0.0   0.0   0.0   ----- 
Tue 19:30    C  0/  0  15.1 12.9  ------    1.6   0.0   0.0   0.0   ----- 
Tue 19:30    C  0/  0  15.1 12.9  ------    1.6   0.0  ----   0.0   ----- 
Tue 20:00    C  0/  0  14.8 12.9  ------    2.0   0.4   0.4   0.0   ----- 
Tue 20:30    C  0/  4  14.8 13.2  ------    2.2   0.2   0.6   0.2   ----- 
Tue 21:00    C  0/  0  14.7 13.3  ------    2.2   0.0   0.2   0.0   ----- 
Tue 21:30    C  0/  0  14.7 13.4  ------    2.2   0.0   0.0   0.0   ----- 
Tue 22:00    C  0/  0  14.6 13.4  ------    2.4   0.2   0.2   0.2   ----- 
Tue 22:30    C  0/  0  14.7 13.6  ------    3.4   1.0   1.2   0.6   ----- 
Tue 23:00    C  0/  0  14.6 13.6  ------    4.0   0.0   0.0   0.0   ----- 

STIRLINGS SOUTH AG STATION

Site: 009LGS
Alt: 150m
26km ENE of MOUNT BARKER


  Time     Wind        Temp  DP   Baro     Rain since   Rain past  Vis(m), Cloud(base in m), Weather
  local        km/h                         9am  last   hr   10m    
Tue 18:00  WNW  4/  7  13.1 12.6  ------    0.4   0.0   0.0   0.0   ----- 
Tue 18:30  WNW  6/  9  13.2 12.8  ------    0.4   0.0   0.0   0.0   ----- 
Tue 19:00  WNW  4/  7  13.4 12.8  ------    0.4   0.0   0.0   0.0   ----- 
Tue 19:30  NNW  4/  7  12.9 12.4  ------    0.4   0.0   0.0   0.0   ----- 
Tue 19:30  NNW  4/  7  12.9 12.4  ------    0.4   0.0  ----   0.0   ----- 
Tue 20:00   NW  4/  7  12.7 12.4  ------    0.4   0.0   0.0   0.0   ----- 
Tue 20:30   NW  2/  6  12.3 12.1  ------    0.4   0.0   0.0   0.0   ----- 
Tue 21:00   NW  4/  7  12.0 11.9  ------    0.4   0.0   0.0   0.0   ----- 
Tue 21:30   NW  6/  7  11.8 11.8  ------    0.4   0.0   0.0   0.0   ----- 
Tue 22:00  NNW  2/  4  10.4 10.4  ------    0.4   0.0   0.0   0.0   ----- 
Tue 22:30   NW  4/  7  11.0 11.0  ------    0.4   0.0   0.0   0.0   ----- 
Tue 23:00   NW  6/  9  10.8 10.8  ------    0.4   0.0   0.0   0.0   ----- 

SWANBOURNE

Site: 009215
Alt: 41.0m
9km E of PERTH CBD


  Time     Wind        Temp  DP   Baro     Rain since   Rain past  Vis(m), Cloud(base in m), Weather
  local        km/h                         9am  last   hr   10m    
Tue 18:00    W  9/ 11  16.0 13.7  ------    2.0   0.2   0.2   0.0   ----- 
Tue 18:30  WSW 15/ 26  15.8 14.0  ------    2.0   0.0   0.2   0.0   ----- 
Tue 19:00   SW  7/  9  15.8 13.8  ------    2.0   0.0   0.0   0.0   ----- 
Tue 19:30  SSW 17/ 26  16.3 14.7  ------    2.0   0.0   0.0   0.0   ----- 
Tue 20:00  WSW 17/ 28  16.2 14.9  ------    2.0   0.0   0.0   0.0   ----- 
Tue 20:30   NW  7/ 11  15.7 14.6  ------    2.0   0.0   0.0   0.0   ----- 
Tue 21:00   NW  7/ 13  15.6 14.8  ------    2.0   0.0   0.0   0.0   ----- 
Tue 21:30    W  9/ 13  15.6 15.3  ------    2.0   0.0   0.0   0.0   ----- 
Tue 22:00  WNW 11/ 15  15.5 15.2  ------    2.4   0.4   0.4   0.0   ----- 
Tue 22:30  NNW  9/ 13  15.4 15.1  ------    2.6   0.2   0.6   0.0   ----- 
Tue 23:00    N  7/  9  15.1 14.8  ------    2.6   0.0   0.2   0.0   ----- 
Tue 23:00    N  7/  9  15.1 14.8  ------    2.6   0.0  ----   0.0   ----- 

VASSE AG STATION

Site: 009GVA
Alt: m
11km SSE of BUSSELTON


  Time     Wind        Temp  DP   Baro     Rain since   Rain past  Vis(m), Cloud(base in m), Weather
  local        km/h                         9am  last   hr   10m    
Tue 18:00    C  0/  2  14.2 13.3  ------    2.6   0.0   0.0   0.0   ----- 
Tue 18:30    C  0/  0  13.3 12.9  ------    2.6   0.0   0.0   0.0   ----- 
Tue 19:00    C  0/  0  12.6 12.5  ------    2.6   0.0   0.0   0.0   ----- 
Tue 19:30    C  0/  0  11.9 11.8  ------    2.6   0.0   0.0   0.0   ----- 
Tue 19:30    C  0/  0  11.9 11.8  ------    2.6   0.0  ----   0.0   ----- 
Tue 20:00    C  0/  2  11.8 11.7  ------    2.6   0.0   0.0   0.0   ----- 
Tue 20:30    C  0/  0  11.1 11.0  ------    2.6   0.0   0.0   0.0   ----- 
Tue 21:00    C  0/  2  11.0 10.9  ------    2.6   0.0   0.0   0.0   ----- 
Tue 21:30    C  0/  2  10.8 10.7  ------    2.6   0.0   0.0   0.0   ----- 
Tue 22:00    C  0/  0  10.3 10.2  ------    2.6   0.0   0.0   0.0   ----- 
Tue 22:30    C  0/  2  10.6 10.5  ------    2.6   0.0   0.0   0.0   ----- 
Tue 23:00    S  2/  4  10.8 10.7  ------    2.6   0.0   0.0   0.0   ----- 

WANNEROO AG STATION

Site: 009GWN
Alt: m
km of


  Time     Wind        Temp  DP   Baro     Rain since   Rain past  Vis(m), Cloud(base in m), Weather
  local        km/h                         9am  last   hr   10m    
Tue 18:00   NW  6/ 13  14.9 12.4  ------    7.6   0.0   0.0   0.0   ----- 
Tue 18:30    C  0/  0  13.6 11.4  ------    7.6   0.0   0.0   0.0   ----- 
Tue 19:00    C  0/  2  13.4 12.1  ------    7.8   0.2   0.2   0.0   ----- 
Tue 19:30    C  0/  0  12.3 11.2  ------    8.0   0.2   0.4   0.0   ----- 
Tue 19:30    C  0/  0  12.3 11.2  ------    8.0   0.0  ----   0.0   ----- 
Tue 20:00    C  0/  4  12.4 11.5  ------    8.0   0.0   0.2   0.0   ----- 
Tue 20:30    C  0/  2  12.1 11.3  ------    8.0   0.0   0.0   0.0   ----- 
Tue 21:00    C  0/  0  11.5 10.8  ------    8.0   0.0   0.0   0.0   ----- 
Tue 21:30    C  0/  4  12.7 12.1  ------    8.0   0.0   0.0   0.0   ----- 
Tue 22:00    C  0/  0  12.7 12.1  ------    8.0   0.0   0.0   0.0   ----- 
Tue 22:30    C  0/  6  13.1 12.5  ------    8.8   0.8   0.8   0.0   ----- 
Tue 23:00    C  0/  4  13.4 12.9  ------   10.6   0.0   0.0   0.2   ----- 

WAROONA

Site: 009GWR
Alt: 36 m
39km SSE of MANDURAH


  Time     Wind        Temp  DP   Baro     Rain since   Rain past  Vis(m), Cloud(base in m), Weather
  local        km/h                         9am  last   hr   10m    
Tue 18:00    N  4/---  14.7 14.7  ------   10.2   0.0   0.2   0.0   ----- 
Tue 18:30    S  4/---  14.8 14.8  ------   11.2   1.0   1.0   1.0   ----- 
Tue 19:00  ESE  2/---  14.2 14.2  ------   12.8   1.6   2.6   0.0   ----- 
Tue 19:30    N  4/---  14.3 14.3  ------   13.0   0.2   1.8   0.2   ----- 
Tue 20:00    E  4/---  14.1 14.1  ------   13.2   0.2   0.4   0.0   ----- 
Tue 20:30  NNE  4/---  13.9 13.9  ------   13.2   0.0   0.2   0.0   ----- 
Tue 21:00   NE  4/---  13.6 13.6  ------   13.4   0.2   0.2   0.2   ----- 
Tue 21:30  ESE  2/---  13.7 13.7  ------   13.4   0.0   0.2   0.0   ----- 
Tue 22:00   NE  2/---  13.0 13.0  ------   13.4   0.0   0.0   0.0   ----- 
Tue 22:30  ENE  4/---  12.4 12.4  ------   13.4   0.0   0.0   0.0   ----- 
Tue 23:00   NE  2/---  12.3 12.3  ------   13.4   0.0   0.0   0.0   ----- 
Tue 23:00   NE  2/---  12.3 12.3  ------   13.4   0.0  ----   0.0   ----- 

WELLSTEAD AG STATION

Site: 009GWE
Alt: m
89km NE of ALBANY


  Time     Wind        Temp  DP   Baro     Rain since   Rain past  Vis(m), Cloud(base in m), Weather
  local        km/h                         9am  last   hr   10m    
Tue 18:00    W  9/ 15  13.6 11.6  ------    0.0   0.0   0.0   0.0   ----- 
Tue 18:30    W  6/  9  12.6 11.2  ------    0.0   0.0   0.0   0.0   ----- 
Tue 19:00  WNW  6/  9  12.6 11.5  ------    0.0   0.0   0.0   0.0   ----- 
Tue 19:30   NW  6/ 11  12.8 11.9  ------    0.0   0.0   0.0   0.0   ----- 
Tue 19:30   NW  6/ 11  12.8 11.9  ------    0.0   0.0  ----   0.0   ----- 
Tue 20:00  WNW  6/  9  13.3 12.2  ------    0.0   0.0   0.0   0.0   ----- 
Tue 20:30  WNW  7/ 11  13.6 12.1  ------    0.0   0.0   0.0   0.0   ----- 
Tue 21:00  WNW  7/ 13  13.4 11.8  ------    0.0   0.0   0.0   0.0   ----- 
Tue 21:30   NW  6/  9  12.9 11.4  ------    0.0   0.0   0.0   0.0   ----- 
Tue 22:00  WNW  4/  7  11.9 10.8  ------    0.0   0.0   0.0   0.0   ----- 
Tue 22:30    W  4/  7  10.8 10.0  ------    0.0   0.0   0.0   0.0   ----- 
Tue 23:00   NW  6/ 11  11.6 11.0  ------    0.0   0.0   0.0   0.0   ----- 

WILYABRUP AG STATION

Site: 009LBP
Alt: 100m
30km SW of BUSSELTON


  Time     Wind        Temp  DP   Baro     Rain since   Rain past  Vis(m), Cloud(base in m), Weather
  local        km/h                         9am  last   hr   10m    
Tue 18:00    C  0/  6  14.2 13.3  ------   14.0   0.0   1.0   0.0   ----- 
Tue 18:30    C  0/  4  14.2 13.5  ------   15.0   1.0   1.0   0.6   ----- 
Tue 18:30    C  0/  4  14.2 13.5  ------   15.0   0.0  ----   0.6   ----- 
Tue 19:00    C  0/  4  13.9 13.3  ------   15.2   0.2   1.2   0.0   ----- 
Tue 19:00    C  0/  4  13.9 13.3  ------   15.2   0.0  ----   0.0   ----- 
Tue 19:30    C  0/  2  13.4 12.8  ------   15.2   0.0   0.2   0.0   ----- 
Tue 19:30    C  0/  2  13.4 12.8  ------   15.2   0.0  ----   0.0   ----- 
Tue 20:00    C  0/  2  13.8 13.3  ------   15.4   0.2   0.2   0.0   ----- 
Tue 20:00    C  0/  2  13.8 13.3  ------   15.4   0.0  ----   0.0   ----- 
Tue 20:30    C  0/  4  13.9 13.5  ------   16.8   1.4   1.6   0.2   ----- 
Tue 21:00    C  0/  2  13.7 13.3  ------   17.0   0.2   1.6   0.2   ----- 
Tue 21:00    C  0/  2  13.7 13.3  ------   17.0   0.0  ----   0.2   ----- 
Tue 21:30    C  0/  0  13.0 12.6  ------   17.0   0.0   0.2   0.0   ----- 
Tue 22:00    C  0/  2  13.4 13.1  ------   17.2   0.2   0.2   0.0   ----- 
Tue 22:00    C  0/  2  13.4 13.1  ------   17.2   0.0  ----   0.0   ----- 
Tue 22:30    C  0/  4  13.7 13.4  ------   18.4   1.2   1.4   0.4   ----- 
Tue 23:00    C  0/  0  13.4 13.1  ------   18.6   0.2   1.4   0.0   ----- 
Tue 23:00    C  0/  0  13.4 13.1  ------   18.6   0.0  ----   0.0   ----- 

WITCHCLIFFE

Site: 009746
Alt: 80.0m
9km SSE of MARGARET RIVER


  Time     Wind        Temp  DP   Baro     Rain since   Rain past  Vis(m), Cloud(base in m), Weather
  local        km/h                         9am  last   hr   10m    
Tue 18:00    C  0/  0  13.7 13.1  1024.3    2.6   0.2   1.0   0.0   ----- 
Tue 18:30    C  0/  0  13.1 12.8  1024.7    2.6   0.0   0.2   0.0   ----- 
Tue 19:00   SW 15/ 20  14.2 14.0  1025.0    3.6   1.0   1.0   0.2   ----- 
Tue 19:30    C  0/  6  13.9 13.7  1025.2    3.6   0.0   1.0   0.0   ----- 
Tue 20:00    C  0/  0  13.1 12.9  1025.4    3.6   0.0   0.0   0.0   ----- 
Tue 20:30    C  0/  0  13.0 12.8  1025.4    3.6   0.0   0.0   0.0   ----- 
Tue 21:00    C  0/  0  12.8 12.8  1025.6    3.6   0.0   0.0   0.0   ----- 
Tue 21:30    N  4/  9  12.9 12.9  1025.6    3.8   0.2   0.2   0.0   ----- 
Tue 22:00    C  0/  0  12.5 12.5  1025.8    4.0   0.2   0.4   0.0   -----